Wetterdaten: Dienstag, 19.11.2013
Datum Zeit Temp. Aussen +5cm Feuchte Auss Luftdruck Regen Sonnenschein Regendauer UV Solar Windben
19.11.2013 00:00 4,2 C 3,3 C 88 % 1008,1 hPa 0,0 l/m 0 min 0 min 0,0 UV-I 0 W/m 4,2 km/h (1 Bft)
19.11.2013 00:02 4,2 C 3,3 C 88 % 1008,1 hPa 0,0 l/m 0 min 0 min 0,0 UV-I 0 W/m 0,0 km/h (0 Bft)
19.11.2013 00:06 4,2 C 3,3 C 88 % 1007,9 hPa 0,0 l/m 0 min 0 min 0,0 UV-I 0 W/m 4,2 km/h (1 Bft)
19.11.2013 00:08 4,2 C 3,3 C 88 % 1007,8 hPa 0,0 l/m 0 min 0 min 0,0 UV-I 0 W/m 12,3 km/h (3 Bft)
19.11.2013 00:10 4,2 C 3,3 C 88 % 1007,7 hPa 0,0 l/m 0 min 0 min 0,0 UV-I 0 W/m 0,0 km/h (0 Bft)
19.11.2013 00:12 4,2 C 3,3 C 88 % 1007,7 hPa 0,0 l/m 0 min 0 min 0,0 UV-I 0 W/m 0,0 km/h (0 Bft)
19.11.2013 00:14 4,2 C 3,3 C 88 % 1007,7 hPa 0,0 l/m 0 min 0 min 0,0 UV-I 0 W/m 0,0 km/h (0 Bft)
19.11.2013 00:16 4,2 C 3,3 C 88 % 1007,7 hPa 0,0 l/m 0 min 0 min 0,0 UV-I 0 W/m 8,2 km/h (2 Bft)
19.11.2013 00:18 4,2 C 3,3 C 88 % 1007,7 hPa 0,0 l/m 0 min 0 min 0,0 UV-I 0 W/m 0,0 km/h (0 Bft)
19.11.2013 00:20 4,2 C 3,3 C 88 % 1007,7 hPa 0,0 l/m 0 min 0 min 0,0 UV-I 0 W/m 8,2 km/h (2 Bft)
19.11.2013 00:22 4,2 C 3,3 C 88 % 1007,7 hPa 0,0 l/m 0 min 0 min 0,0 UV-I 0 W/m 4,2 km/h (1 Bft)
19.11.2013 00:24 4,2 C 3,3 C 88 % 1007,7 hPa 0,0 l/m 0 min 0 min 0,0 UV-I 0 W/m 0,0 km/h (0 Bft)
19.11.2013 00:26 4,2 C 3,3 C 88 % 1007,7 hPa 0,0 l/m 0 min 0 min 0,0 UV-I 0 W/m 4,2 km/h (1 Bft)
19.11.2013 00:28 4,2 C 3,3 C 88 % 1007,7 hPa 0,0 l/m 0 min 0 min 0,0 UV-I 0 W/m 0,0 km/h (0 Bft)
19.11.2013 00:30 4,2 C 3,3 C 88 % 1007,8 hPa 0,0 l/m 0 min 0 min 0,0 UV-I 0 W/m 16,5 km/h (3 Bft)
19.11.2013 00:32 4,2 C 3,3 C 88 % 1007,7 hPa 0,0 l/m 0 min 0 min 0,0 UV-I 0 W/m 0,0 km/h (0 Bft)
19.11.2013 00:34 4,2 C 3,3 C 88 % 1007,6 hPa 0,0 l/m 0 min 0 min 0,0 UV-I 0 W/m 0,0 km/h (0 Bft)
19.11.2013 00:36 4,2 C 3,3 C 88 % 1007,5 hPa 0,0 l/m 0 min 0 min 0,0 UV-I 0 W/m 8,2 km/h (2 Bft)
19.11.2013 00:38 4,2 C 3,3 C 88 % 1007,6 hPa 0,0 l/m 0 min 0 min 0,0 UV-I 0 W/m 0,0 km/h (0 Bft)
19.11.2013 00:40 4,2 C 3,3 C 88 % 1007,6 hPa 0,0 l/m 0 min 0 min 0,0 UV-I 0 W/m 4,2 km/h (1 Bft)
19.11.2013 00:42 4,2 C 3,3 C 88 % 1007,6 hPa 0,0 l/m 0 min 0 min 0,0 UV-I 0 W/m 8,2 km/h (2 Bft)
19.11.2013 00:44 4,2 C 3,3 C 88 % 1007,6 hPa 0,0 l/m 0 min 0 min 0,0 UV-I 0 W/m 8,2 km/h (2 Bft)
19.11.2013 00:46 4,2 C 3,3 C 88 % 1007,5 hPa 0,0 l/m 0 min 0 min 0,0 UV-I 0 W/m 0,0 km/h (0 Bft)
19.11.2013 00:48 4,2 C 3,3 C 88 % 1007,6 hPa 0,0 l/m 0 min 0 min 0,0 UV-I 0 W/m 0,0 km/h (0 Bft)
19.11.2013 00:50 4,2 C 3,3 C 88 % 1007,5 hPa 0,0 l/m 0 min 0 min 0,0 UV-I 0 W/m 4,2 km/h (1 Bft)
19.11.2013 00:52 4,2 C 3,3 C 88 % 1007,4 hPa 0,0 l/m 0 min 0 min 0,0 UV-I 0 W/m 0,0 km/h (0 Bft)
19.11.2013 00:54 4,2 C 3,3 C 88 % 1007,3 hPa 0,0 l/m 0 min 0 min 0,0 UV-I 0 W/m 0,0 km/h (0 Bft)
19.11.2013 00:56 4,2 C 3,3 C 92 % 1007,3 hPa 0,0 l/m 0 min 0 min 0,0 UV-I 0 W/m 4,2 km/h (1 Bft)
19.11.2013 00:58 4,2 C 3,3 C 92 % 1007,3 hPa 0,0 l/m 0 min 0 min 0,0 UV-I 0 W/m 4,2 km/h (1 Bft)
19.11.2013 01:00 4,2 C 3,3 C 92 % 1007,2 hPa 0,0 l/m 0 min 0 min 0,0 UV-I 0 W/m 12,3 km/h (3 Bft)
19.11.2013 01:02 4,2 C 3,3 C 87 % 1007,2 hPa 0,0 l/m 0 min 0 min 0,0 UV-I 0 W/m 4,2 km/h (1 Bft)
19.11.2013 01:04 4,2 C 3,3 C 87 % 1007,2 hPa 0,0 l/m 0 min 0 min 0,0 UV-I 0 W/m 0,0 km/h (0 Bft)
19.11.2013 01:06 4,1 C 3,3 C 87 % 1007,1 hPa 0,0 l/m 0 min 0 min 0,0 UV-I 0 W/m 0,0 km/h (0 Bft)
19.11.2013 01:08 4,1 C 3,3 C 87 % 1007,1 hPa 0,0 l/m 0 min 0 min 0,0 UV-I 0 W/m 12,3 km/h (3 Bft)
19.11.2013 01:10 4,1 C 3,3 C 87 % 1007,1 hPa 0,0 l/m 0 min 0 min 0,0 UV-I 0 W/m 0,0 km/h (0 Bft)
19.11.2013 01:12 4,1 C 3,3 C 87 % 1007,1 hPa 0,0 l/m 0 min 0 min 0,0 UV-I 0 W/m 0,0 km/h (0 Bft)
19.11.2013 01:14 4,1 C 3,3 C 87 % 1007,1 hPa 0,0 l/m 0 min 0 min 0,0 UV-I 0 W/m 0,0 km/h (0 Bft)
19.11.2013 01:16 4,1 C 3,3 C 87 % 1007,0 hPa 0,0 l/m 0 min 0 min 0,0 UV-I 0 W/m 0,0 km/h (0 Bft)
19.11.2013 01:18 4,1 C 3,3 C 87 % 1007,0 hPa 0,0 l/m 0 min 0 min 0,0 UV-I 0 W/m 0,0 km/h (0 Bft)
19.11.2013 01:20 4,1 C 3,3 C 87 % 1007,0 hPa 0,0 l/m 0 min 0 min 0,0 UV-I 0 W/m 0,0 km/h (0 Bft)
19.11.2013 01:22 4,1 C 3,3 C 87 % 1007,0 hPa 0,0 l/m 0 min 0 min 0,0 UV-I 0 W/m 8,2 km/h (2 Bft)
19.11.2013 01:24 4,1 C 3,3 C 87 % 1007,0 hPa 0,0 l/m 0 min 0 min 0,0 UV-I 0 W/m 0,0 km/h (0 Bft)
19.11.2013 01:26 4,1 C 3,3 C 87 % 1006,9 hPa 0,0 l/m 0 min 0 min 0,0 UV-I 0 W/m 0,0 km/h (0 Bft)
19.11.2013 01:28 4,1 C 3,3 C 87 % 1007,0 hPa 0,0 l/m 0 min 0 min 0,0 UV-I 0 W/m 4,2 km/h (1 Bft)
19.11.2013 01:30 4,1 C 3,3 C 87 % 1006,9 hPa 0,0 l/m 0 min 0 min 0,0 UV-I 0 W/m 12,3 km/h (3 Bft)
19.11.2013 01:32 4,1 C 3,3 C 87 % 1007,0 hPa 0,0 l/m 0 min 0 min 0,0 UV-I 0 W/m 0,0 km/h (0 Bft)
19.11.2013 01:34 4,1 C 3,3 C 87 % 1007,0 hPa 0,0 l/m 0 min 0 min 0,0 UV-I 0 W/m 0,0 km/h (0 Bft)
19.11.2013 01:36 4,1 C 3,3 C 87 % 1007,0 hPa 0,0 l/m 0 min 0 min 0,0 UV-I 0 W/m 0,0 km/h (0 Bft)
19.11.2013 01:38 4,1 C 3,3 C 87 % 1007,0 hPa 0,0 l/m 0 min 0 min 0,0 UV-I 0 W/m 0,0 km/h (0 Bft)
19.11.2013 01:40 4,1 C 3,3 C 87 % 1007,0 hPa 0,0 l/m 0 min 0 min 0,0 UV-I 0 W/m 0,0 km/h (0 Bft)
19.11.2013 01:42 4,1 C 3,3 C 87 % 1007,0 hPa 0,0 l/m 0 min 0 min 0,0 UV-I 0 W/m 8,2 km/h (2 Bft)
19.11.2013 01:44 4,1 C 3,3 C 87 % 1007,0 hPa 0,0 l/m 0 min 0 min 0,0 UV-I 0 W/m 4,2 km/h (1 Bft)
19.11.2013 01:46 4,1 C 3,3 C 87 % 1007,0 hPa 0,0 l/m 0 min 0 min 0,0 UV-I 0 W/m 12,3 km/h (3 Bft)
19.11.2013 01:48 4,1 C 3,3 C 87 % 1007,0 hPa 0,0 l/m 0 min 0 min 0,0 UV-I 0 W/m 4,2 km/h (1 Bft)
19.11.2013 01:50 4,1 C 3,3 C 87 % 1007,0 hPa 0,0 l/m 0 min 0 min 0,0 UV-I 0 W/m 8,2 km/h (2 Bft)
19.11.2013 01:52 4,1 C 3,3 C 87 % 1007,0 hPa 0,0 l/m 0 min 0 min 0,0 UV-I 0 W/m 4,2 km/h (1 Bft)
19.11.2013 01:54 4,1 C 3,3 C 87 % 1007,0 hPa 0,0 l/m 0 min 0 min 0,0 UV-I 0 W/m 12,3 km/h (3 Bft)
19.11.2013 01:56 4,1 C 3,3 C 87 % 1007,0 hPa 0,0 l/m 0 min 0 min 0,0 UV-I 0 W/m 12,3 km/h (3 Bft)
19.11.2013 01:58 4,1 C 3,3 C 87 % 1007,0 hPa 0,0 l/m 0 min 0 min 0,0 UV-I 0 W/m 0,0 km/h (0 Bft)
19.11.2013 02:00 4,1 C 3,3 C 87 % 1007,0 hPa 0,0 l/m 0 min 0 min 0,0 UV-I 0 W/m 0,0 km/h (0 Bft)
19.11.2013 02:02 4,1 C 3,3 C 87 % 1007,0 hPa 0,0 l/m 0 min 0 min 0,0 UV-I 0 W/m 0,0 km/h (0 Bft)
19.11.2013 02:04 4,1 C 3,3 C 87 % 1007,0 hPa 0,0 l/m 0 min 0 min 0,0 UV-I 0 W/m 0,0 km/h (0 Bft)
19.11.2013 02:06 4,1 C 3,3 C 88 % 1007,0 hPa 0,0 l/m 0 min 0 min 0,0 UV-I 0 W/m 0,0 km/h (0 Bft)
19.11.2013 02:08 4,1 C 3,3 C 88 % 1006,9 hPa 0,0 l/m 0 min 0 min 0,0 UV-I 0 W/m 0,0 km/h (0 Bft)
19.11.2013 02:10 4,1 C 3,3 C 88 % 1006,9 hPa 0,0 l/m 0 min 0 min 0,0 UV-I 0 W/m 4,2 km/h (1 Bft)
19.11.2013 02:12 4,1 C 3,3 C 88 % 1006,9 hPa 0,0 l/m 0 min 0 min 0,0 UV-I 0 W/m 0,0 km/h (0 Bft)
19.11.2013 02:14 4,0 C 3,3 C 88 % 1006,9 hPa 0,0 l/m 0 min 0 min 0,0 UV-I 0 W/m 0,0 km/h (0 Bft)
19.11.2013 02:16 4,0 C 3,3 C 88 % 1006,9 hPa 0,0 l/m 0 min 0 min 0,0 UV-I 0 W/m 0,0 km/h (0 Bft)
19.11.2013 02:18 4,1 C 3,3 C 88 % 1006,8 hPa 0,0 l/m 0 min 0 min 0,0 UV-I 0 W/m 0,0 km/h (0 Bft)
19.11.2013 02:20 4,0 C 3,3 C 88 % 1006,9 hPa 0,0 l/m 0 min 0 min 0,0 UV-I 0 W/m 4,2 km/h (1 Bft)
19.11.2013 02:22 4,0 C 3,3 C 88 % 1006,9 hPa 0,0 l/m 0 min 0 min 0,0 UV-I 0 W/m 0,0 km/h (0 Bft)
19.11.2013 02:24 4,1 C 3,3 C 88 % 1006,8 hPa 0,0 l/m 0 min 0 min 0,0 UV-I 0 W/m 0,0 km/h (0 Bft)
19.11.2013 02:26 4,1 C 3,3 C 88 % 1006,9 hPa 0,0 l/m 0 min 0 min 0,0 UV-I 0 W/m 0,0 km/h (0 Bft)
19.11.2013 02:28 4,1 C 3,3 C 88 % 1006,8 hPa 0,0 l/m 0 min 0 min 0,0 UV-I 0 W/m 4,2 km/h (1 Bft)
19.11.2013 02:30 4,1 C 3,3 C 88 % 1006,8 hPa 0,0 l/m 0 min 0 min 0,0 UV-I 0 W/m 0,0 km/h (0 Bft)
19.11.2013 02:32 4,0 C 3,3 C 88 % 1006,8 hPa 0,0 l/m 0 min 0 min 0,0 UV-I 0 W/m 4,2 km/h (1 Bft)
19.11.2013 02:34 4,0 C 3,3 C 88 % 1006,8 hPa 0,0 l/m 0 min 0 min 0,0 UV-I 0 W/m 8,2 km/h (2 Bft)
19.11.2013 02:36 4,0 C 3,3 C 88 % 1006,8 hPa 0,0 l/m 0 min 0 min 0,0 UV-I 0 W/m 8,2 km/h (2 Bft)
19.11.2013 02:38 4,0 C 3,3 C 88 % 1006,8 hPa 0,0 l/m 0 min 0 min 0,0 UV-I 0 W/m 0,0 km/h (0 Bft)
19.11.2013 02:40 4,1 C 3,3 C 88 % 1006,8 hPa 0,0 l/m 0 min 0 min 0,0 UV-I 0 W/m 0,0 km/h (0 Bft)
19.11.2013 02:42 4,0 C 3,3 C 88 % 1006,8 hPa 0,0 l/m 0 min 0 min 0,0 UV-I 0 W/m 4,2 km/h (1 Bft)
19.11.2013 02:44 4,1 C 3,3 C 88 % 1006,7 hPa 0,0 l/m 0 min 0 min 0,0 UV-I 0 W/m 0,0 km/h (0 Bft)
19.11.2013 02:46 4,1 C 3,3 C 88 % 1006,7 hPa 0,0 l/m 0 min 0 min 0,0 UV-I 0 W/m 0,0 km/h (0 Bft)
19.11.2013 02:48 4,1 C 3,3 C 88 % 1006,7 hPa 0,0 l/m 0 min 0 min 0,0 UV-I 0 W/m 4,2 km/h (1 Bft)
19.11.2013 02:50 4,1 C 3,3 C 88 % 1006,8 hPa 0,0 l/m 0 min 0 min 0,0 UV-I 0 W/m 0,0 km/h (0 Bft)
19.11.2013 02:52 4,1 C 3,3 C 88 % 1006,7 hPa 0,0 l/m 0 min 0 min 0,0 UV-I 0 W/m 0,0 km/h (0 Bft)
19.11.2013 02:54 4,1 C 3,3 C 88 % 1006,7 hPa 0,0 l/m 0 min 0 min 0,0 UV-I 0 W/m 0,0 km/h (0 Bft)
19.11.2013 02:56 4,1 C 3,3 C 88 % 1006,6 hPa 0,0 l/m 0 min 0 min 0,0 UV-I 0 W/m 0,0 km/h (0 Bft)
19.11.2013 02:58 4,1 C 3,3 C 88 % 1006,7 hPa 0,0 l/m 0 min 0 min 0,0 UV-I 0 W/m 0,0 km/h (0 Bft)
19.11.2013 03:00 4,1 C 3,3 C 88 % 1006,7 hPa 0,0 l/m 0 min 0 min 0,0 UV-I 0 W/m 0,0 km/h (0 Bft)
19.11.2013 03:02 4,1 C 3,3 C 88 % 1006,6 hPa 0,0 l/m 0 min 0 min 0,0 UV-I 0 W/m 0,0 km/h (0 Bft)
19.11.2013 03:04 4,1 C 3,3 C 88 % 1006,6 hPa 0,0 l/m 0 min 0 min 0,0 UV-I 0 W/m 0,0 km/h (0 Bft)
19.11.2013 03:06 4,1 C 3,3 C 88 % 1006,6 hPa 0,0 l/m 0 min 0 min 0,0 UV-I 0 W/m 0,0 km/h (0 Bft)
19.11.2013 03:08 4,1 C 3,3 C 88 % 1006,5 hPa 0,0 l/m 0 min 0 min 0,0 UV-I 0 W/m 8,2 km/h (2 Bft)
19.11.2013 03:10 4,1 C 3,3 C 88 % 1006,6 hPa 0,0 l/m 0 min 0 min 0,0 UV-I 0 W/m 0,0 km/h (0 Bft)
19.11.2013 03:12 4,1 C 3,3 C 88 % 1006,5 hPa 0,0 l/m 0 min 0 min 0,0 UV-I 0 W/m 0,0 km/h (0 Bft)
19.11.2013 03:14 4,1 C 3,3 C 88 % 1006,5 hPa 0,0 l/m 0 min 0 min 0,0 UV-I 0 W/m 0,0 km/h (0 Bft)
19.11.2013 03:16 4,1 C 3,3 C 88 % 1006,4 hPa 0,0 l/m 0 min 0 min 0,0 UV-I 0 W/m 0,0 km/h (0 Bft)
19.11.2013 03:18 4,1 C 3,3 C 88 % 1006,5 hPa 0,0 l/m 0 min 0 min 0,0 UV-I 0 W/m 0,0 km/h (0 Bft)
19.11.2013 03:20 4,1 C 3,3 C 88 % 1006,4 hPa 0,0 l/m 0 min 0 min 0,0 UV-I 0 W/m 12,3 km/h (3 Bft)
19.11.2013 03:22 4,1 C 3,3 C 88 % 1006,4 hPa 0,0 l/m 0 min 0 min 0,0 UV-I 0 W/m 8,2 km/h (2 Bft)
19.11.2013 03:24 4,1 C 3,3 C 88 % 1006,3 hPa 0,0 l/m 0 min 0 min 0,0 UV-I 0 W/m 12,3 km/h (3 Bft)
19.11.2013 03:26 4,1 C 3,3 C 88 % 1006,3 hPa 0,0 l/m 0 min 0 min 0,0 UV-I 0 W/m 0,0 km/h (0 Bft)
19.11.2013 03:28 4,1 C 3,3 C 88 % 1006,2 hPa 0,0 l/m 0 min 0 min 0,0 UV-I 0 W/m 0,0 km/h (0 Bft)
19.11.2013 03:30 4,1 C 3,3 C 88 % 1006,2 hPa 0,0 l/m 0 min 0 min 0,0 UV-I 0 W/m 0,0 km/h (0 Bft)
19.11.2013 03:32 4,1 C 3,3 C 88 % 1006,3 hPa 0,0 l/m 0 min 0 min 0,0 UV-I 0 W/m 0,0 km/h (0 Bft)
19.11.2013 03:34 4,1 C 3,3 C 88 % 1006,3 hPa 0,0 l/m 0 min 0 min 0,0 UV-I 0 W/m 0,0 km/h (0 Bft)
19.11.2013 03:36 4,1 C 3,3 C 88 % 1006,4 hPa 0,0 l/m 0 min 0 min 0,0 UV-I 0 W/m 0,0 km/h (0 Bft)
19.11.2013 03:38 4,1 C 3,3 C 88 % 1006,3 hPa 0,0 l/m 0 min 0 min 0,0 UV-I 0 W/m 0,0 km/h (0 Bft)
19.11.2013 03:40 4,1 C 3,3 C 88 % 1006,3 hPa 0,0 l/m 0 min 0 min 0,0 UV-I 0 W/m 0,0 km/h (0 Bft)
19.11.2013 03:42 4,1 C 3,3 C 88 % 1006,3 hPa 0,0 l/m 0 min 0 min 0,0 UV-I 0 W/m 0,0 km/h (0 Bft)
19.11.2013 03:44 4,1 C 3,3 C 88 % 1006,3 hPa 0,0 l/m 0 min 0 min 0,0 UV-I 0 W/m 0,0 km/h (0 Bft)
19.11.2013 03:46 4,1 C 3,3 C 88 % 1006,2 hPa 0,0 l/m 0 min 0 min 0,0 UV-I 0 W/m 0,0 km/h (0 Bft)
19.11.2013 03:48 4,1 C 3,3 C 88 % 1006,2 hPa 0,0 l/m 0 min 0 min 0,0 UV-I 0 W/m 0,0 km/h (0 Bft)
19.11.2013 03:50 4,1 C 3,3 C 88 % 1006,2 hPa 0,0 l/m 0 min 0 min 0,0 UV-I 0 W/m 0,0 km/h (0 Bft)
19.11.2013 03:52 4,1 C 3,3 C 88 % 1006,2 hPa 0,0 l/m 0 min 0 min 0,0 UV-I 0 W/m 0,0 km/h (0 Bft)
19.11.2013 03:54 4,1 C 3,3 C 88 % 1006,3 hPa 0,0 l/m 0 min 0 min 0,0 UV-I 0 W/m 0,0 km/h (0 Bft)
19.11.2013 03:56 4,1 C 3,3 C 88 % 1006,2 hPa 0,0 l/m 0 min 0 min 0,0 UV-I 0 W/m 0,0 km/h (0 Bft)
19.11.2013 03:58 4,1 C 3,3 C 88 % 1006,2 hPa 0,0 l/m 0 min 0 min 0,0 UV-I 0 W/m 0,0 km/h (0 Bft)
19.11.2013 04:00 4,1 C 3,3 C 88 % 1006,2 hPa 0,0 l/m 0 min 0 min 0,0 UV-I 0 W/m 0,0 km/h (0 Bft)
19.11.2013 04:02 4,1 C 3,3 C 88 % 1006,1 hPa 0,0 l/m 0 min 0 min 0,0 UV-I 0 W/m 0,0 km/h (0 Bft)
19.11.2013 04:08 4,1 C 3,3 C 88 % 1006,2 hPa 0,0 l/m 0 min 0 min 0,0 UV-I 0 W/m 4,2 km/h (1 Bft)
19.11.2013 04:13 4,1 C 3,3 C 88 % 1006,2 hPa 0,0 l/m 0 min 0 min 0,0 UV-I 0 W/m 12,3 km/h (3 Bft)
19.11.2013 04:14 4,1 C 3,3 C 88 % 1006,2 hPa 0,0 l/m 0 min 0 min 0,0 UV-I 0 W/m 0,0 km/h (0 Bft)
19.11.2013 04:16 4,1 C 3,3 C 88 % 1006,4 hPa 0,0 l/m 0 min 0 min 0,0 UV-I 0 W/m 0,0 km/h (0 Bft)
19.11.2013 04:18 4,1 C 3,3 C 88 % 1006,3 hPa 0,0 l/m 0 min 0 min 0,0 UV-I 0 W/m 0,0 km/h (0 Bft)
19.11.2013 04:20 4,1 C 3,3 C 88 % 1006,3 hPa 0,0 l/m 0 min 0 min 0,0 UV-I 0 W/m 0,0 km/h (0 Bft)
19.11.2013 04:22 4,1 C 3,3 C 88 % 1006,2 hPa 0,0 l/m 0 min 0 min 0,0 UV-I 0 W/m 0,0 km/h (0 Bft)
19.11.2013 04:24 4,1 C 3,3 C 88 % 1006,1 hPa 0,0 l/m 0 min 0 min 0,0 UV-I 0 W/m 0,0 km/h (0 Bft)
19.11.2013 04:26 4,1 C 3,3 C 88 % 1006,2 hPa 0,0 l/m 0 min 0 min 0,0 UV-I 0 W/m 0,0 km/h (0 Bft)
19.11.2013 04:28 4,1 C 3,3 C 88 % 1006,2 hPa 0,0 l/m 0 min 0 min 0,0 UV-I 0 W/m 0,0 km/h (0 Bft)
19.11.2013 04:30 4,1 C 3,3 C 88 % 1006,2 hPa 0,0 l/m 0 min 0 min 0,0 UV-I 0 W/m 0,0 km/h (0 Bft)
19.11.2013 04:32 4,1 C 3,3 C 88 % 1006,1 hPa 0,0 l/m 0 min 0 min 0,0 UV-I 0 W/m 0,0 km/h (0 Bft)
19.11.2013 04:34 4,1 C 3,3 C 88 % 1006,1 hPa 0,0 l/m 0 min 0 min 0,0 UV-I 0 W/m 0,0 km/h (0 Bft)
19.11.2013 04:36 4,1 C 3,3 C 88 % 1006,0 hPa 0,0 l/m 0 min 0 min 0,0 UV-I 0 W/m 0,0 km/h (0 Bft)
19.11.2013 04:38 4,1 C 3,3 C 88 % 1006,1 hPa 0,0 l/m 0 min 0 min 0,0 UV-I 0 W/m 0,0 km/h (0 Bft)
19.11.2013 04:40 4,1 C 3,3 C 88 % 1006,0 hPa 0,0 l/m 0 min 0 min 0,0 UV-I 0 W/m 0,0 km/h (0 Bft)
19.11.2013 04:42 4,1 C 3,3 C 88 % 1006,1 hPa 0,0 l/m 0 min 0 min 0,0 UV-I 0 W/m 0,0 km/h (0 Bft)
19.11.2013 04:44 4,1 C 3,3 C 88 % 1006,1 hPa 0,0 l/m 0 min 0 min 0,0 UV-I 0 W/m 0,0 km/h (0 Bft)
19.11.2013 04:46 4,1 C 3,3 C 88 % 1006,0 hPa 0,0 l/m 0 min 0 min 0,0 UV-I 0 W/m 0,0 km/h (0 Bft)
19.11.2013 04:48 4,1 C 3,3 C 88 % 1006,0 hPa 0,0 l/m 0 min 0 min 0,0 UV-I 0 W/m 0,0 km/h (0 Bft)
19.11.2013 04:50 4,1 C 3,3 C 87 % 1005,9 hPa 0,0 l/m 0 min 0 min 0,0 UV-I 0 W/m 0,0 km/h (0 Bft)
19.11.2013 04:52 4,1 C 3,3 C 87 % 1006,0 hPa 0,0 l/m 0 min 0 min 0,0 UV-I 0 W/m 0,0 km/h (0 Bft)
19.11.2013 04:54 4,1 C 3,3 C 87 % 1005,9 hPa 0,0 l/m 0 min 0 min 0,0 UV-I 0 W/m 4,2 km/h (1 Bft)
19.11.2013 04:56 4,1 C 3,3 C 88 % 1005,9 hPa 0,0 l/m 0 min 0 min 0,0 UV-I 0 W/m 0,0 km/h (0 Bft)
19.11.2013 04:58 4,1 C 3,3 C 88 % 1006,0 hPa 0,0 l/m 0 min 0 min 0,0 UV-I 0 W/m 0,0 km/h (0 Bft)
19.11.2013 05:00 4,1 C 3,3 C 88 % 1006,0 hPa 0,0 l/m 0 min 0 min 0,0 UV-I 0 W/m 0,0 km/h (0 Bft)
19.11.2013 05:02 4,1 C 3,3 C 88 % 1005,9 hPa 0,0 l/m 0 min 0 min 0,0 UV-I 0 W/m 0,0 km/h (0 Bft)
19.11.2013 05:04 4,1 C 3,3 C 88 % 1005,9 hPa 0,0 l/m 0 min 0 min 0,0 UV-I 0 W/m 0,0 km/h (0 Bft)
19.11.2013 05:06 4,1 C 3,3 C 88 % 1006,0 hPa 0,0 l/m 0 min 0 min 0,0 UV-I 0 W/m 12,3 km/h (3 Bft)
19.11.2013 05:08 4,1 C 3,3 C 88 % 1005,9 hPa 0,0 l/m 0 min 0 min 0,0 UV-I 0 W/m 12,3 km/h (3 Bft)
19.11.2013 05:10 4,1 C 3,3 C 88 % 1006,0 hPa 0,0 l/m 0 min 0 min 0,0 UV-I 0 W/m 4,2 km/h (1 Bft)
19.11.2013 05:12 4,1 C 3,3 C 88 % 1006,0 hPa 0,0 l/m 0 min 0 min 0,0 UV-I 0 W/m 12,3 km/h (3 Bft)
19.11.2013 05:14 4,1 C 3,3 C 88 % 1006,0 hPa 0,0 l/m 0 min 0 min 0,0 UV-I 0 W/m 0,0 km/h (0 Bft)
19.11.2013 05:16 4,1 C 3,3 C 88 % 1006,0 hPa 0,0 l/m 0 min 0 min 0,0 UV-I 0 W/m 0,0 km/h (0 Bft)
19.11.2013 05:18 4,1 C 3,3 C 88 % 1005,9 hPa 0,0 l/m 0 min 0 min 0,0 UV-I 0 W/m 0,0 km/h (0 Bft)
19.11.2013 05:20 4,1 C 3,3 C 88 % 1005,9 hPa 0,0 l/m 0 min 0 min 0,0 UV-I 0 W/m 4,2 km/h (1 Bft)
19.11.2013 05:22 4,1 C 3,3 C 88 % 1005,9 hPa 0,0 l/m 0 min 0 min 0,0 UV-I 0 W/m 4,2 km/h (1 Bft)
19.11.2013 05:24 4,1 C 3,3 C 88 % 1005,9 hPa 0,0 l/m 0 min 0 min 0,0 UV-I 0 W/m 8,2 km/h (2 Bft)
19.11.2013 05:26 4,1 C 3,3 C 88 % 1005,9 hPa 0,0 l/m 0 min 0 min 0,0 UV-I 0 W/m 0,0 km/h (0 Bft)
19.11.2013 05:28 4,1 C 3,3 C 88 % 1005,9 hPa 0,0 l/m 0 min 0 min 0,0 UV-I 0 W/m 4,2 km/h (1 Bft)
19.11.2013 05:30 4,1 C 3,3 C 88 % 1005,9 hPa 0,0 l/m 0 min 0 min 0,0 UV-I 0 W/m 0,0 km/h (0 Bft)
19.11.2013 05:32 4,1 C 3,3 C 88 % 1005,9 hPa 0,0 l/m 0 min 0 min 0,0 UV-I 0 W/m 0,0 km/h (0 Bft)
19.11.2013 05:34 4,1 C 3,3 C 88 % 1005,9 hPa 0,0 l/m 0 min 0 min 0,0 UV-I 0 W/m 0,0 km/h (0 Bft)
19.11.2013 05:36 4,1 C 3,3 C 88 % 1005,8 hPa 0,0 l/m 0 min 0 min 0,0 UV-I 0 W/m 0,0 km/h (0 Bft)
19.11.2013 05:38 4,1 C 3,3 C 88 % 1005,8 hPa 0,0 l/m 0 min 0 min 0,0 UV-I 0 W/m 0,0 km/h (0 Bft)
19.11.2013 05:40 4,1 C 3,3 C 88 % 1005,7 hPa 0,0 l/m 0 min 0 min 0,0 UV-I 0 W/m 8,2 km/h (2 Bft)
19.11.2013 05:42 4,1 C 3,3 C 88 % 1005,7 hPa 0,0 l/m 0 min 0 min 0,0 UV-I 0 W/m 4,2 km/h (1 Bft)
19.11.2013 05:44 4,1 C 3,3 C 88 % 1005,8 hPa 0,0 l/m 0 min 0 min 0,0 UV-I 0 W/m 8,2 km/h (2 Bft)
19.11.2013 05:46 4,1 C 3,3 C 88 % 1005,8 hPa 0,0 l/m 0 min 0 min 0,0 UV-I 0 W/m 12,3 km/h (3 Bft)
19.11.2013 05:48 4,1 C 3,3 C 88 % 1005,8 hPa 0,0 l/m 0 min 0 min 0,0 UV-I 0 W/m 4,2 km/h (1 Bft)
19.11.2013 05:50 4,1 C 3,3 C 88 % 1005,8 hPa 0,0 l/m 0 min 0 min 0,0 UV-I 0 W/m 0,0 km/h (0 Bft)
19.11.2013 05:52 4,1 C 3,3 C 88 % 1005,8 hPa 0,0 l/m 0 min 0 min 0,0 UV-I 0 W/m 0,0 km/h (0 Bft)
19.11.2013 05:54 4,1 C 3,3 C 88 % 1005,8 hPa 0,0 l/m 0 min 0 min 0,0 UV-I 0 W/m 4,2 km/h (1 Bft)
19.11.2013 05:56 4,1 C 3,3 C 88 % 1005,9 hPa 0,0 l/m 0 min 0 min 0,0 UV-I 0 W/m 8,2 km/h (2 Bft)
19.11.2013 05:58 4,1 C 3,3 C 88 % 1005,8 hPa 0,0 l/m 0 min 0 min 0,0 UV-I 0 W/m 0,0 km/h (0 Bft)
19.11.2013 06:00 4,1 C 3,3 C 88 % 1005,8 hPa 0,0 l/m 0 min 0 min 0,0 UV-I 0 W/m 0,0 km/h (0 Bft)
19.11.2013 06:02 4,1 C 3,3 C 88 % 1005,8 hPa 0,0 l/m 0 min 0 min 0,0 UV-I 0 W/m 4,2 km/h (1 Bft)
19.11.2013 06:04 4,1 C 3,3 C 88 % 1005,8 hPa 0,0 l/m 0 min 0 min 0,0 UV-I 0 W/m 0,0 km/h (0 Bft)
19.11.2013 06:06 4,1 C 3,3 C 88 % 1005,8 hPa 0,0 l/m 0 min 0 min 0,0 UV-I 0 W/m 4,2 km/h (1 Bft)
19.11.2013 06:08 4,1 C 3,3 C 88 % 1005,8 hPa 0,0 l/m 0 min 0 min 0,0 UV-I 0 W/m 0,0 km/h (0 Bft)
19.11.2013 06:10 4,1 C 3,3 C 88 % 1005,7 hPa 0,0 l/m 0 min 0 min 0,0 UV-I 0 W/m 0,0 km/h (0 Bft)
19.11.2013 06:12 4,1 C 3,3 C 89 % 1005,7 hPa 0,0 l/m 0 min 0 min 0,0 UV-I 0 W/m 0,0 km/h (0 Bft)
19.11.2013 06:14 4,1 C 3,3 C 89 % 1005,7 hPa 0,0 l/m 0 min 0 min 0,0 UV-I 0 W/m 0,0 km/h (0 Bft)
19.11.2013 06:16 4,1 C 3,3 C 89 % 1005,7 hPa 0,0 l/m 0 min 0 min 0,0 UV-I 0 W/m 0,0 km/h (0 Bft)
19.11.2013 06:18 4,1 C 3,3 C 89 % 1005,7 hPa 0,0 l/m 0 min 0 min 0,0 UV-I 0 W/m 0,0 km/h (0 Bft)
19.11.2013 06:20 4,1 C 3,3 C 89 % 1005,5 hPa 0,0 l/m 0 min 0 min 0,0 UV-I 0 W/m 0,0 km/h (0 Bft)
19.11.2013 06:22 4,1 C 3,3 C 89 % 1005,6 hPa 0,0 l/m 0 min 0 min 0,0 UV-I 0 W/m 0,0 km/h (0 Bft)
19.11.2013 06:24 4,1 C 2,8 C 89 % 1005,7 hPa 0,0 l/m 0 min 0 min 0,0 UV-I 0 W/m 0,0 km/h (0 Bft)
19.11.2013 06:26 4,1 C 2,8 C 89 % 1005,7 hPa 0,0 l/m 0 min 0 min 0,0 UV-I 0 W/m 0,0 km/h (0 Bft)
19.11.2013 06:28 4,1 C 2,8 C 88 % 1005,6 hPa 0,0 l/m 0 min 0 min 0,0 UV-I 0 W/m 0,0 km/h (0 Bft)
19.11.2013 06:30 4,1 C 2,8 C 89 % 1005,6 hPa 0,0 l/m 0 min 0 min 0,0 UV-I 0 W/m 0,0 km/h (0 Bft)
19.11.2013 06:32 4,1 C 2,8 C 89 % 1005,6 hPa 0,0 l/m 0 min 0 min 0,0 UV-I 0 W/m 0,0 km/h (0 Bft)
19.11.2013 06:34 4,1 C 2,8 C 89 % 1005,5 hPa 0,0 l/m 0 min 0 min 0,0 UV-I 0 W/m 0,0 km/h (0 Bft)
19.11.2013 06:36 4,1 C 3,3 C 89 % 1005,4 hPa 0,0 l/m 0 min 0 min 0,0 UV-I 0 W/m 0,0 km/h (0 Bft)
19.11.2013 06:38 4,0 C 3,3 C 89 % 1005,5 hPa 0,0 l/m 0 min 0 min 0,0 UV-I 0 W/m 0,0 km/h (0 Bft)
19.11.2013 06:40 4,0 C 3,3 C 89 % 1005,6 hPa 0,0 l/m 0 min 0 min 0,0 UV-I 0 W/m 0,0 km/h (0 Bft)
19.11.2013 06:42 4,0 C 3,3 C 89 % 1005,6 hPa 0,0 l/m 0 min 0 min 0,0 UV-I 0 W/m 0,0 km/h (0 Bft)
19.11.2013 06:44 4,0 C 3,3 C 89 % 1005,7 hPa 0,0 l/m 0 min 0 min 0,0 UV-I 0 W/m 8,2 km/h (2 Bft)
19.11.2013 06:46 4,0 C 3,3 C 89 % 1005,7 hPa 0,0 l/m 0 min 0 min 0,0 UV-I 0 W/m 0,0 km/h (0 Bft)
19.11.2013 06:48 4,0 C 3,3 C 89 % 1005,7 hPa 0,0 l/m 0 min 0 min 0,0 UV-I 0 W/m 0,0 km/h (0 Bft)
19.11.2013 06:50 4,0 C 3,3 C 89 % 1005,7 hPa 0,0 l/m 0 min 0 min 0,0 UV-I 0 W/m 0,0 km/h (0 Bft)
19.11.2013 06:52 4,0 C 3,3 C 89 % 1005,7 hPa 0,0 l/m 0 min 0 min 0,0 UV-I 0 W/m 0,0 km/h (0 Bft)
19.11.2013 06:54 4,0 C 3,3 C 89 % 1005,6 hPa 0,0 l/m 0 min 0 min 0,0 UV-I 0 W/m 0,0 km/h (0 Bft)
19.11.2013 06:56 4,0 C 3,3 C 89 % 1005,6 hPa 0,0 l/m 0 min 0 min 0,0 UV-I 0 W/m 0,0 km/h (0 Bft)
19.11.2013 06:58 4,0 C 3,3 C 89 % 1005,6 hPa 0,0 l/m 0 min 0 min 0,0 UV-I 0 W/m 0,0 km/h (0 Bft)
19.11.2013 07:00 4,0 C 3,3 C 89 % 1005,6 hPa 0,0 l/m 0 min 0 min 0,0 UV-I 0 W/m 0,0 km/h (0 Bft)
19.11.2013 07:02 4,0 C 3,3 C 89 % 1005,7 hPa 0,0 l/m 0 min 0 min 0,0 UV-I 0 W/m 0,0 km/h (0 Bft)
19.11.2013 07:04 4,1 C 3,3 C 90 % 1005,6 hPa 0,0 l/m 0 min 0 min 0,0 UV-I 0 W/m 0,0 km/h (0 Bft)
19.11.2013 07:06 4,1 C 3,3 C 90 % 1005,6 hPa 0,0 l/m 0 min 0 min 0,0 UV-I 0 W/m 0,0 km/h (0 Bft)
19.11.2013 07:08 4,1 C 3,3 C 90 % 1005,6 hPa 0,0 l/m 0 min 0 min 0,0 UV-I 0 W/m 0,0 km/h (0 Bft)
19.11.2013 07:10 4,1 C 3,3 C 90 % 1005,6 hPa 0,0 l/m 0 min 0 min 0,0 UV-I 0 W/m 0,0 km/h (0 Bft)
19.11.2013 07:12 4,1 C 3,3 C 90 % 1005,7 hPa 0,0 l/m 0 min 0 min 0,0 UV-I 0 W/m 4,2 km/h (1 Bft)
19.11.2013 07:14 4,1 C 3,3 C 90 % 1005,7 hPa 0,0 l/m 0 min 0 min 0,0 UV-I 0 W/m 0,0 km/h (0 Bft)
19.11.2013 07:16 4,1 C 3,3 C 90 % 1005,8 hPa 0,0 l/m 0 min 0 min 0,0 UV-I 0 W/m 0,0 km/h (0 Bft)
19.11.2013 07:18 4,1 C 3,3 C 90 % 1005,7 hPa 0,0 l/m 0 min 0 min 0,0 UV-I 0 W/m 0,0 km/h (0 Bft)
19.11.2013 07:20 4,1 C 3,3 C 90 % 1005,7 hPa 0,0 l/m 0 min 0 min 0,0 UV-I 0 W/m 0,0 km/h (0 Bft)
19.11.2013 07:22 4,1 C 3,3 C 90 % 1005,7 hPa 0,0 l/m 0 min 0 min 0,0 UV-I 0 W/m 12,3 km/h (3 Bft)
19.11.2013 07:24 4,1 C 3,3 C 90 % 1005,7 hPa 0,0 l/m 0 min 0 min 0,0 UV-I 0 W/m 0,0 km/h (0 Bft)
19.11.2013 07:26 4,1 C 3,3 C 90 % 1005,7 hPa 0,0 l/m 0 min 0 min 0,0 UV-I 0 W/m 0,0 km/h (0 Bft)
19.11.2013 07:28 4,1 C 3,3 C 90 % 1005,7 hPa 0,0 l/m 0 min 0 min 0,0 UV-I 0 W/m 0,0 km/h (0 Bft)
19.11.2013 07:30 4,1 C 3,3 C 90 % 1005,8 hPa 0,0 l/m 0 min 0 min 0,0 UV-I 0 W/m 0,0 km/h (0 Bft)
19.11.2013 07:32 4,1 C 3,3 C 90 % 1005,8 hPa 0,0 l/m 0 min 0 min 0,0 UV-I 0 W/m 4,2 km/h (1 Bft)
19.11.2013 07:34 4,1 C 3,3 C 90 % 1005,8 hPa 0,0 l/m 0 min 0 min 0,0 UV-I 0 W/m 0,0 km/h (0 Bft)
19.11.2013 07:36 4,1 C 3,3 C 90 % 1005,9 hPa 0,0 l/m 0 min 0 min 0,0 UV-I 0 W/m 0,0 km/h (0 Bft)
19.11.2013 07:38 4,2 C 3,3 C 90 % 1005,9 hPa 0,0 l/m 0 min 0 min 0,0 UV-I 0 W/m 0,0 km/h (0 Bft)
19.11.2013 07:40 4,2 C 3,3 C 90 % 1005,8 hPa 0,0 l/m 0 min 0 min 0,0 UV-I 0 W/m 0,0 km/h (0 Bft)
19.11.2013 07:42 4,2 C 3,3 C 90 % 1005,8 hPa 0,0 l/m 0 min 0 min 0,0 UV-I 0 W/m 0,0 km/h (0 Bft)
19.11.2013 07:44 4,2 C 3,3 C 90 % 1005,9 hPa 0,0 l/m 0 min 0 min 0,0 UV-I 0 W/m 0,0 km/h (0 Bft)
19.11.2013 07:46 4,2 C 3,3 C 90 % 1005,9 hPa 0,0 l/m 0 min 0 min 0,0 UV-I 0 W/m 0,0 km/h (0 Bft)
19.11.2013 07:48 4,2 C 3,3 C 90 % 1005,9 hPa 0,0 l/m 0 min 0 min 0,0 UV-I 0 W/m 8,2 km/h (2 Bft)
19.11.2013 07:50 4,2 C 3,3 C 90 % 1006,0 hPa 0,0 l/m 0 min 0 min 0,0 UV-I 0 W/m 0,0 km/h (0 Bft)
19.11.2013 07:52 4,2 C 3,3 C 90 % 1005,9 hPa 0,0 l/m 0 min 0 min 0,0 UV-I 0 W/m 0,0 km/h (0 Bft)
19.11.2013 07:54 4,2 C 3,3 C 90 % 1005,9 hPa 0,0 l/m 0 min 0 min 0,0 UV-I 0 W/m 0,0 km/h (0 Bft)
19.11.2013 07:56 4,2 C 3,3 C 90 % 1005,9 hPa 0,0 l/m 0 min 0 min 0,0 UV-I 0 W/m 0,0 km/h (0 Bft)
19.11.2013 07:58 4,2 C 3,3 C 90 % 1005,8 hPa 0,0 l/m 0 min 0 min 0,0 UV-I 0 W/m 0,0 km/h (0 Bft)
19.11.2013 08:00 4,2 C 3,3 C 90 % 1005,9 hPa 0,0 l/m 0 min 0 min 0,0 UV-I 0 W/m 0,0 km/h (0 Bft)
19.11.2013 08:02 4,2 C 3,3 C 90 % 1005,9 hPa 0,0 l/m 0 min 0 min 0,0 UV-I 0 W/m 0,0 km/h (0 Bft)
19.11.2013 08:04 4,2 C 3,3 C 90 % 1006,0 hPa 0,0 l/m 0 min 0 min 0,0 UV-I 0 W/m 0,0 km/h (0 Bft)
19.11.2013 08:06 4,2 C 3,3 C 90 % 1006,0 hPa 0,0 l/m 0 min 0 min 0,0 UV-I 0 W/m 8,2 km/h (2 Bft)
19.11.2013 08:08 4,2 C 3,3 C 90 % 1006,0 hPa 0,0 l/m 0 min 0 min 0,0 UV-I 0 W/m 0,0 km/h (0 Bft)
19.11.2013 08:10 4,2 C 3,3 C 90 % 1006,0 hPa 0,0 l/m 0 min 0 min 0,0 UV-I 0 W/m 0,0 km/h (0 Bft)
19.11.2013 08:12 4,3 C 3,3 C 90 % 1006,0 hPa 0,0 l/m 0 min 0 min 0,0 UV-I 0 W/m 0,0 km/h (0 Bft)
19.11.2013 08:14 4,3 C 3,3 C 90 % 1006,0 hPa 0,0 l/m 0 min 0 min 0,0 UV-I 0 W/m 16,5 km/h (3 Bft)
19.11.2013 08:16 4,3 C 3,3 C 90 % 1006,0 hPa 0,0 l/m 0 min 0 min 0,0 UV-I 5 W/m 0,0 km/h (0 Bft)
19.11.2013 08:18 4,3 C 3,3 C 90 % 1006,0 hPa 0,0 l/m 0 min 0 min 0,0 UV-I 5 W/m 0,0 km/h (0 Bft)
19.11.2013 08:20 4,3 C 3,3 C 90 % 1006,1 hPa 0,0 l/m 0 min 0 min 0,0 UV-I 5 W/m 0,0 km/h (0 Bft)
19.11.2013 08:22 4,3 C 3,3 C 90 % 1006,1 hPa 0,0 l/m 0 min 0 min 0,0 UV-I 7 W/m 0,0 km/h (0 Bft)
19.11.2013 08:24 4,3 C 3,3 C 90 % 1006,1 hPa 0,0 l/m 0 min 0 min 0,0 UV-I 7 W/m 0,0 km/h (0 Bft)
19.11.2013 08:26 4,3 C 3,9 C 90 % 1006,1 hPa 0,0 l/m 0 min 0 min 0,0 UV-I 7 W/m 0,0 km/h (0 Bft)
19.11.2013 08:28 4,3 C 3,9 C 90 % 1006,1 hPa 0,0 l/m 0 min 0 min 0,0 UV-I 7 W/m 0,0 km/h (0 Bft)
19.11.2013 08:30 4,3 C 3,9 C 90 % 1006,1 hPa 0,0 l/m 0 min 0 min 0,0 UV-I 9 W/m 12,3 km/h (3 Bft)
19.11.2013 08:32 4,3 C 3,9 C 90 % 1006,2 hPa 0,0 l/m 0 min 0 min 0,0 UV-I 9 W/m 0,0 km/h (0 Bft)
19.11.2013 08:34 4,4 C 3,9 C 90 % 1006,2 hPa 0,0 l/m 0 min 0 min 0,0 UV-I 11 W/m 0,0 km/h (0 Bft)
19.11.2013 08:36 4,4 C 3,9 C 90 % 1006,2 hPa 0,0 l/m 0 min 0 min 0,0 UV-I 11 W/m 0,0 km/h (0 Bft)
19.11.2013 08:38 4,4 C 3,9 C 90 % 1006,2 hPa 0,0 l/m 0 min 0 min 0,0 UV-I 11 W/m 8,2 km/h (2 Bft)
19.11.2013 08:40 4,4 C 3,9 C 90 % 1006,3 hPa 0,0 l/m 0 min 0 min 0,0 UV-I 12 W/m 0,0 km/h (0 Bft)
19.11.2013 08:42 4,4 C 3,9 C 90 % 1006,3 hPa 0,0 l/m 0 min 0 min 0,0 UV-I 14 W/m 0,0 km/h (0 Bft)
19.11.2013 08:44 4,4 C 3,9 C 90 % 1006,3 hPa 0,0 l/m 0 min 0 min 0,0 UV-I 14 W/m 8,2 km/h (2 Bft)
19.11.2013 08:46 4,4 C 3,9 C 90 % 1006,4 hPa 0,0 l/m 0 min 0 min 0,0 UV-I 12 W/m 8,2 km/h (2 Bft)
19.11.2013 08:48 4,4 C 3,9 C 90 % 1006,4 hPa 0,0 l/m 0 min 0 min 0,0 UV-I 14 W/m 12,3 km/h (3 Bft)
19.11.2013 08:50 4,4 C 3,9 C 90 % 1006,3 hPa 0,0 l/m 0 min 0 min 0,0 UV-I 14 W/m 4,2 km/h (1 Bft)
19.11.2013 08:52 4,5 C 3,9 C 90 % 1006,3 hPa 0,0 l/m 0 min 0 min 0,0 UV-I 16 W/m 4,2 km/h (1 Bft)
19.11.2013 08:54 4,5 C 3,9 C 90 % 1006,3 hPa 0,0 l/m 0 min 0 min 0,0 UV-I 18 W/m 0,0 km/h (0 Bft)
19.11.2013 08:56 4,5 C 3,9 C 90 % 1006,3 hPa 0,0 l/m 0 min 0 min 0,0 UV-I 21 W/m 0,0 km/h (0 Bft)
19.11.2013 08:58 4,5 C 3,9 C 90 % 1006,4 hPa 0,0 l/m 0 min 0 min 0,0 UV-I 21 W/m 0,0 km/h (0 Bft)
19.11.2013 09:00 4,6 C 3,9 C 90 % 1006,3 hPa 0,0 l/m 0 min 0 min 0,0 UV-I 23 W/m 0,0 km/h (0 Bft)
19.11.2013 09:02 4,6 C 3,9 C 90 % 1006,3 hPa 0,0 l/m 0 min 0 min 0,0 UV-I 21 W/m 0,0 km/h (0 Bft)
19.11.2013 09:04 4,6 C 3,9 C 90 % 1006,3 hPa 0,0 l/m 0 min 0 min 0,0 UV-I 19 W/m 4,2 km/h (1 Bft)
19.11.2013 09:06 4,6 C 3,9 C 90 % 1006,4 hPa 0,0 l/m 0 min 0 min 0,0 UV-I 19 W/m 4,2 km/h (1 Bft)
19.11.2013 09:08 4,6 C 3,9 C 90 % 1006,4 hPa 0,0 l/m 0 min 0 min 0,0 UV-I 19 W/m 0,0 km/h (0 Bft)
19.11.2013 09:10 4,6 C 3,9 C 90 % 1006,4 hPa 0,0 l/m 0 min 0 min 0,0 UV-I 19 W/m 0,0 km/h (0 Bft)
19.11.2013 09:12 4,6 C 3,9 C 90 % 1006,4 hPa 0,0 l/m 0 min 0 min 0,0 UV-I 19 W/m 0,0 km/h (0 Bft)
19.11.2013 09:14 4,7 C 3,9 C 90 % 1006,5 hPa 0,0 l/m 0 min 0 min 0,0 UV-I 21 W/m 0,0 km/h (0 Bft)
19.11.2013 09:16 4,7 C 3,9 C 90 % 1006,5 hPa 0,0 l/m 0 min 0 min 0,0 UV-I 21 W/m 20,6 km/h (4 Bft)
19.11.2013 09:18 4,7 C 3,9 C 89 % 1006,5 hPa 0,0 l/m 0 min 0 min 0,0 UV-I 19 W/m 0,0 km/h (0 Bft)
19.11.2013 09:20 4,7 C 3,9 C 90 % 1006,5 hPa 0,0 l/m 0 min 0 min 0,0 UV-I 18 W/m 16,5 km/h (3 Bft)
19.11.2013 09:22 4,7 C 3,9 C 90 % 1006,5 hPa 0,0 l/m 0 min 0 min 0,0 UV-I 18 W/m 0,0 km/h (0 Bft)
19.11.2013 09:24 4,7 C 3,9 C 90 % 1006,5 hPa 0,0 l/m 0 min 0 min 0,0 UV-I 19 W/m 0,0 km/h (0 Bft)
19.11.2013 09:26 4,7 C 3,9 C 90 % 1006,6 hPa 0,0 l/m 0 min 0 min 0,0 UV-I 21 W/m 8,2 km/h (2 Bft)
19.11.2013 09:28 4,7 C 3,9 C 90 % 1006,5 hPa 0,0 l/m 0 min 0 min 0,0 UV-I 23 W/m 0,0 km/h (0 Bft)
19.11.2013 09:30 4,8 C 3,9 C 90 % 1006,5 hPa 0,0 l/m 0 min 0 min 0,0 UV-I 23 W/m 12,3 km/h (3 Bft)
19.11.2013 09:32 4,8 C 3,9 C 90 % 1006,5 hPa 0,0 l/m 0 min 0 min 0,0 UV-I 26 W/m 4,2 km/h (1 Bft)
19.11.2013 09:34 4,8 C 3,9 C 89 % 1006,6 hPa 0,0 l/m 0 min 0 min 0,0 UV-I 30 W/m 8,2 km/h (2 Bft)
19.11.2013 09:36 4,8 C 3,9 C 90 % 1006,6 hPa 0,0 l/m 0 min 0 min 0,0 UV-I 32 W/m 0,0 km/h (0 Bft)
19.11.2013 09:38 4,8 C 4,4 C 90 % 1006,6 hPa 0,0 l/m 0 min 0 min 0,0 UV-I 33 W/m 0,0 km/h (0 Bft)
19.11.2013 09:40 4,8 C 4,4 C 89 % 1006,7 hPa 0,0 l/m 0 min 0 min 0,0 UV-I 33 W/m 4,2 km/h (1 Bft)
19.11.2013 09:42 4,8 C 4,4 C 89 % 1006,6 hPa 0,0 l/m 0 min 0 min 0,0 UV-I 30 W/m 4,2 km/h (1 Bft)
19.11.2013 09:44 4,9 C 4,4 C 90 % 1006,6 hPa 0,0 l/m 0 min 0 min 0,0 UV-I 28 W/m 0,0 km/h (0 Bft)
19.11.2013 09:46 4,9 C 4,4 C 89 % 1006,6 hPa 0,0 l/m 0 min 0 min 0,0 UV-I 32 W/m 12,3 km/h (3 Bft)
19.11.2013 09:48 4,9 C 4,4 C 89 % 1006,6 hPa 0,0 l/m 0 min 0 min 0,0 UV-I 35 W/m 12,3 km/h (3 Bft)
19.11.2013 09:50 4,9 C 4,4 C 89 % 1006,5 hPa 0,0 l/m 0 min 0 min 0,0 UV-I 39 W/m 4,2 km/h (1 Bft)
19.11.2013 09:52 4,9 C 4,4 C 89 % 1006,5 hPa 0,0 l/m 0 min 0 min 0,0 UV-I 40 W/m 12,3 km/h (3 Bft)
19.11.2013 09:54 4,9 C 4,4 C 89 % 1006,5 hPa 0,0 l/m 0 min 0 min 0,0 UV-I 37 W/m 8,2 km/h (2 Bft)
19.11.2013 09:56 5,0 C 4,4 C 89 % 1006,5 hPa 0,0 l/m 0 min 0 min 0,0 UV-I 46 W/m 0,0 km/h (0 Bft)
19.11.2013 09:58 5,0 C 4,4 C 89 % 1006,5 hPa 0,0 l/m 0 min 0 min 0,0 UV-I 54 W/m 0,0 km/h (0 Bft)
19.11.2013 10:00 5,0 C 4,4 C 89 % 1006,5 hPa 0,0 l/m 0 min 0 min 0,0 UV-I 53 W/m 0,0 km/h (0 Bft)
19.11.2013 10:02 5,1 C 4,4 C 90 % 1006,6 hPa 0,0 l/m 0 min 0 min 0,0 UV-I 51 W/m 16,5 km/h (3 Bft)
19.11.2013 10:04 5,1 C 4,4 C 90 % 1006,6 hPa 0,0 l/m 0 min 0 min 0,0 UV-I 37 W/m 20,6 km/h (4 Bft)
19.11.2013 10:06 5,1 C 4,4 C 90 % 1006,7 hPa 0,0 l/m 0 min 0 min 0,0 UV-I 26 W/m 0,0 km/h (0 Bft)
19.11.2013 10:08 5,1 C 4,4 C 90 % 1006,7 hPa 0,0 l/m 0 min 0 min 0,0 UV-I 30 W/m 8,2 km/h (2 Bft)
19.11.2013 10:10 5,1 C 4,4 C 90 % 1006,7 hPa 0,0 l/m 0 min 0 min 0,0 UV-I 35 W/m 4,2 km/h (1 Bft)
19.11.2013 10:12 5,1 C 4,4 C 90 % 1006,7 hPa 0,0 l/m 0 min 0 min 0,0 UV-I 44 W/m 12,3 km/h (3 Bft)
19.11.2013 10:14 5,1 C 4,4 C 90 % 1006,7 hPa 0,0 l/m 0 min 0 min 0,0 UV-I 54 W/m 12,3 km/h (3 Bft)
19.11.2013 10:16 5,2 C 4,4 C 90 % 1006,6 hPa 0,0 l/m 0 min 0 min 0,0 UV-I 56 W/m 12,3 km/h (3 Bft)
19.11.2013 10:18 5,2 C 4,4 C 90 % 1006,6 hPa 0,0 l/m 0 min 0 min 0,0 UV-I 62 W/m 8,2 km/h (2 Bft)
19.11.2013 10:20 5,2 C 4,4 C 90 % 1006,6 hPa 0,0 l/m 0 min 0 min 0,0 UV-I 76 W/m 0,0 km/h (0 Bft)
19.11.2013 10:22 5,2 C 5,0 C 90 % 1006,6 hPa 0,0 l/m 0 min 0 min 0,0 UV-I 90 W/m 0,0 km/h (0 Bft)
19.11.2013 10:24 5,3 C 5,0 C 90 % 1006,6 hPa 0,0 l/m 0 min 0 min 0,0 UV-I 86 W/m 0,0 km/h (0 Bft)
19.11.2013 10:26 5,3 C 5,0 C 90 % 1006,7 hPa 0,0 l/m 0 min 0 min 0,0 UV-I 74 W/m 4,2 km/h (1 Bft)
19.11.2013 10:28 5,3 C 5,0 C 90 % 1006,8 hPa 0,0 l/m 0 min 0 min 0,0 UV-I 69 W/m 12,3 km/h (3 Bft)
19.11.2013 10:30 5,3 C 5,0 C 90 % 1006,8 hPa 0,0 l/m 0 min 0 min 0,0 UV-I 70 W/m 12,3 km/h (3 Bft)
19.11.2013 10:32 5,4 C 5,0 C 90 % 1006,7 hPa 0,0 l/m 0 min 0 min 0,0 UV-I 65 W/m 0,0 km/h (0 Bft)
19.11.2013 10:34 5,4 C 5,0 C 90 % 1006,8 hPa 0,0 l/m 0 min 0 min 0,0 UV-I 62 W/m 0,0 km/h (0 Bft)
19.11.2013 10:36 5,4 C 5,0 C 90 % 1006,8 hPa 0,0 l/m 0 min 0 min 0,0 UV-I 58 W/m 0,0 km/h (0 Bft)
19.11.2013 10:38 5,4 C 5,0 C 90 % 1006,7 hPa 0,0 l/m 0 min 0 min 0,0 UV-I 56 W/m 4,2 km/h (1 Bft)
19.11.2013 10:40 5,4 C 5,0 C 90 % 1006,7 hPa 0,0 l/m 0 min 0 min 0,0 UV-I 56 W/m 4,2 km/h (1 Bft)
19.11.2013 10:42 5,4 C 5,0 C 90 % 1006,8 hPa 0,0 l/m 0 min 0 min 0,0 UV-I 49 W/m 0,0 km/h (0 Bft)
19.11.2013 10:44 5,5 C 5,0 C 90 % 1006,8 hPa 0,0 l/m 0 min 0 min 0,0 UV-I 51 W/m 0,0 km/h (0 Bft)
19.11.2013 10:46 5,5 C 5,0 C 90 % 1006,8 hPa 0,0 l/m 0 min 0 min 0,0 UV-I 56 W/m 0,0 km/h (0 Bft)
19.11.2013 10:48 5,5 C 5,0 C 90 % 1006,8 hPa 0,0 l/m 0 min 0 min 0,0 UV-I 60 W/m 0,0 km/h (0 Bft)
19.11.2013 10:50 5,5 C 5,0 C 90 % 1006,8 hPa 0,0 l/m 0 min 0 min 0,0 UV-I 60 W/m 0,0 km/h (0 Bft)
19.11.2013 10:52 5,6 C 5,0 C 90 % 1006,8 hPa 0,0 l/m 0 min 0 min 0,0 UV-I 60 W/m 4,2 km/h (1 Bft)
19.11.2013 10:54 5,6 C 5,0 C 90 % 1006,8 hPa 0,0 l/m 0 min 0 min 0,0 UV-I 62 W/m 16,5 km/h (3 Bft)
19.11.2013 10:56 5,6 C 5,0 C 90 % 1006,8 hPa 0,0 l/m 0 min 0 min 0,0 UV-I 63 W/m 4,2 km/h (1 Bft)
19.11.2013 10:58 5,6 C 5,0 C 90 % 1006,8 hPa 0,0 l/m 0 min 0 min 0,0 UV-I 58 W/m 0,0 km/h (0 Bft)
19.11.2013 11:00 5,6 C 5,0 C 90 % 1006,8 hPa 0,0 l/m 0 min 0 min 0,0 UV-I 46 W/m 0,0 km/h (0 Bft)
19.11.2013 11:02 5,6 C 5,0 C 90 % 1006,8 hPa 0,0 l/m 0 min 0 min 0,0 UV-I 42 W/m 0,0 km/h (0 Bft)
19.11.2013 11:04 5,7 C 5,0 C 90 % 1006,9 hPa 0,0 l/m 0 min 0 min 0,0 UV-I 40 W/m 0,0 km/h (0 Bft)
19.11.2013 11:06 5,7 C 5,0 C 90 % 1006,8 hPa 0,0 l/m 0 min 0 min 0,0 UV-I 42 W/m 4,2 km/h (1 Bft)
19.11.2013 11:08 5,7 C 5,0 C 90 % 1006,8 hPa 0,0 l/m 0 min 0 min 0,0 UV-I 46 W/m 0,0 km/h (0 Bft)
19.11.2013 11:10 5,7 C 5,0 C 90 % 1006,7 hPa 0,0 l/m 0 min 0 min 0,0 UV-I 51 W/m 8,2 km/h (2 Bft)
19.11.2013 11:12 5,7 C 5,0 C 90 % 1006,7 hPa 0,0 l/m 0 min 0 min 0,0 UV-I 54 W/m 4,2 km/h (1 Bft)
19.11.2013 11:14 5,7 C 5,0 C 90 % 1006,7 hPa 0,0 l/m 0 min 0 min 0,0 UV-I 53 W/m 0,0 km/h (0 Bft)
19.11.2013 11:16 5,7 C 4,4 C 90 % 1006,7 hPa 0,0 l/m 0 min 0 min 0,0 UV-I 51 W/m 0,0 km/h (0 Bft)
19.11.2013 11:18 5,7 C 4,4 C 90 % 1006,6 hPa 0,0 l/m 0 min 0 min 0,0 UV-I 44 W/m 0,0 km/h (0 Bft)
19.11.2013 11:20 5,7 C 4,4 C 90 % 1006,6 hPa 0,0 l/m 0 min 0 min 0,0 UV-I 40 W/m 0,0 km/h (0 Bft)
19.11.2013 11:22 5,8 C 4,4 C 91 % 1006,6 hPa 0,0 l/m 0 min 0 min 0,0 UV-I 40 W/m 0,0 km/h (0 Bft)
19.11.2013 11:24 5,7 C 4,4 C 95 % 1006,6 hPa 0,0 l/m 0 min 0 min 0,0 UV-I 35 W/m 0,0 km/h (0 Bft)
19.11.2013 11:26 5,8 C 4,4 C 95 % 1006,5 hPa 0,0 l/m 0 min 0 min 0,0 UV-I 35 W/m 0,0 km/h (0 Bft)
19.11.2013 11:28 5,8 C 4,4 C 91 % 1006,6 hPa 0,0 l/m 0 min 0 min 0,0 UV-I 40 W/m 8,2 km/h (2 Bft)
19.11.2013 11:30 5,8 C 4,4 C 91 % 1006,5 hPa 0,0 l/m 0 min 0 min 0,0 UV-I 53 W/m 0,0 km/h (0 Bft)
19.11.2013 11:32 5,8 C 4,4 C 91 % 1006,4 hPa 0,0 l/m 0 min 0 min 0,0 UV-I 54 W/m 0,0 km/h (0 Bft)
19.11.2013 11:34 5,8 C 4,4 C 91 % 1006,5 hPa 0,0 l/m 0 min 0 min 0,0 UV-I 53 W/m 0,0 km/h (0 Bft)
19.11.2013 11:36 5,8 C 4,4 C 91 % 1006,4 hPa 0,0 l/m 0 min 0 min 0,0 UV-I 49 W/m 12,3 km/h (3 Bft)
19.11.2013 11:38 5,8 C 4,4 C 91 % 1006,4 hPa 0,0 l/m 0 min 0 min 0,0 UV-I 49 W/m 8,2 km/h (2 Bft)
19.11.2013 11:40 5,8 C 4,4 C 91 % 1006,4 hPa 0,0 l/m 0 min 0 min 0,0 UV-I 49 W/m 12,3 km/h (3 Bft)
19.11.2013 11:42 5,8 C 4,4 C 91 % 1006,4 hPa 0,0 l/m 0 min 0 min 0,0 UV-I 42 W/m 4,2 km/h (1 Bft)
19.11.2013 11:44 5,7 C 4,4 C 91 % 1006,5 hPa 0,0 l/m 0 min 0 min 0,0 UV-I 40 W/m 0,0 km/h (0 Bft)
19.11.2013 11:46 5,7 C 4,4 C 92 % 1006,4 hPa 0,0 l/m 0 min 0 min 0,0 UV-I 46 W/m 8,2 km/h (2 Bft)
19.11.2013 11:48 5,7 C 4,4 C 92 % 1006,4 hPa 0,0 l/m 0 min 0 min 0,0 UV-I 46 W/m 0,0 km/h (0 Bft)
19.11.2013 11:50 5,7 C 4,4 C 92 % 1006,4 hPa 0,0 l/m 0 min 0 min 0,0 UV-I 47 W/m 0,0 km/h (0 Bft)
19.11.2013 11:52 5,7 C 5,0 C 92 % 1006,4 hPa 0,0 l/m 0 min 0 min 0,0 UV-I 49 W/m 0,0 km/h (0 Bft)
19.11.2013 11:54 5,7 C 5,0 C 92 % 1006,4 hPa 0,0 l/m 0 min 0 min 0,0 UV-I 39 W/m 0,0 km/h (0 Bft)
19.11.2013 11:56 5,7 C 4,4 C 92 % 1006,4 hPa 0,0 l/m 0 min 0 min 0,0 UV-I 35 W/m 0,0 km/h (0 Bft)
19.11.2013 11:58 5,7 C 4,4 C 92 % 1006,5 hPa 0,0 l/m 0 min 0 min 0,0 UV-I 35 W/m 0,0 km/h (0 Bft)
19.11.2013 12:00 5,7 C 4,4 C 92 % 1006,5 hPa 0,0 l/m 0 min 0 min 0,0 UV-I 37 W/m 0,0 km/h (0 Bft)
19.11.2013 12:02 5,7 C 4,4 C 92 % 1006,5 hPa 0,0 l/m 0 min 0 min 0,0 UV-I 35 W/m 0,0 km/h (0 Bft)
19.11.2013 12:04 5,7 C 4,4 C 92 % 1006,5 hPa 0,0 l/m 0 min 0 min 0,0 UV-I 32 W/m 0,0 km/h (0 Bft)
19.11.2013 12:06 5,7 C 4,4 C 92 % 1006,5 hPa 0,0 l/m 0 min 0 min 0,0 UV-I 32 W/m 0,0 km/h (0 Bft)
19.11.2013 12:08 5,7 C 4,4 C 92 % 1006,5 hPa 0,0 l/m 0 min 0 min 0,0 UV-I 28 W/m 4,2 km/h (1 Bft)
19.11.2013 12:10 5,7 C 4,4 C 92 % 1006,5 hPa 0,0 l/m 0 min 0 min 0,0 UV-I 23 W/m 0,0 km/h (0 Bft)
19.11.2013 12:12 5,7 C 4,4 C 92 % 1006,4 hPa 0,0 l/m 0 min 0 min 0,0 UV-I 25 W/m 0,0 km/h (0 Bft)
19.11.2013 12:14 5,7 C 4,4 C 92 % 1006,4 hPa 0,0 l/m 0 min 0 min 0,0 UV-I 26 W/m 0,0 km/h (0 Bft)
19.11.2013 12:16 5,7 C 4,4 C 92 % 1006,4 hPa 0,0 l/m 0 min 0 min 0,0 UV-I 28 W/m 0,0 km/h (0 Bft)
19.11.2013 12:18 5,7 C 4,4 C 92 % 1006,4 hPa 0,0 l/m 0 min 0 min 0,0 UV-I 30 W/m 0,0 km/h (0 Bft)
19.11.2013 12:20 5,7 C 4,4 C 92 % 1006,4 hPa 0,0 l/m 0 min 0 min 0,0 UV-I 26 W/m 0,0 km/h (0 Bft)
19.11.2013 12:22 5,7 C 4,4 C 93 % 1006,4 hPa 0,0 l/m 0 min 0 min 0,0 UV-I 35 W/m 0,0 km/h (0 Bft)
19.11.2013 12:24 5,7 C 4,4 C 93 % 1006,4 hPa 0,0 l/m 0 min 0 min 0,0 UV-I 37 W/m 0,0 km/h (0 Bft)
19.11.2013 12:26 5,7 C 4,4 C 93 % 1006,4 hPa 0,0 l/m 0 min 0 min 0,0 UV-I 40 W/m 4,2 km/h (1 Bft)
19.11.2013 12:28 5,7 C 4,4 C 93 % 1006,4 hPa 0,0 l/m 0 min 0 min 0,0 UV-I 35 W/m 0,0 km/h (0 Bft)
19.11.2013 12:30 5,7 C 4,4 C 93 % 1006,4 hPa 0,0 l/m 0 min 0 min 0,0 UV-I 26 W/m 0,0 km/h (0 Bft)
19.11.2013 12:32 5,7 C 4,4 C 93 % 1006,4 hPa 0,0 l/m 0 min 0 min 0,0 UV-I 25 W/m 0,0 km/h (0 Bft)
19.11.2013 12:34 5,7 C 4,4 C 93 % 1006,4 hPa 0,0 l/m 0 min 0 min 0,0 UV-I 25 W/m 0,0 km/h (0 Bft)
19.11.2013 12:36 5,7 C 4,4 C 93 % 1006,4 hPa 0,0 l/m 0 min 0 min 0,0 UV-I 25 W/m 0,0 km/h (0 Bft)
19.11.2013 12:38 5,7 C 4,4 C 93 % 1006,4 hPa 0,0 l/m 0 min 0 min 0,0 UV-I 26 W/m 0,0 km/h (0 Bft)
19.11.2013 12:40 5,7 C 4,4 C 93 % 1006,4 hPa 0,0 l/m 0 min 0 min 0,0 UV-I 26 W/m 0,0 km/h (0 Bft)
19.11.2013 12:42 5,7 C 4,4 C 93 % 1006,4 hPa 0,0 l/m 0 min 0 min 0,0 UV-I 26 W/m 12,3 km/h (3 Bft)
19.11.2013 12:44 5,7 C 4,4 C 93 % 1006,4 hPa 0,0 l/m 0 min 0 min 0,0 UV-I 26 W/m 0,0 km/h (0 Bft)
19.11.2013 12:46 5,7 C 4,4 C 93 % 1006,4 hPa 0,0 l/m 0 min 0 min 0,0 UV-I 23 W/m 0,0 km/h (0 Bft)
19.11.2013 12:48 5,7 C 4,4 C 93 % 1006,5 hPa 0,0 l/m 0 min 0 min 0,0 UV-I 21 W/m 4,2 km/h (1 Bft)
19.11.2013 12:50 5,7 C 4,4 C 93 % 1006,5 hPa 0,0 l/m 0 min 0 min 0,0 UV-I 21 W/m 0,0 km/h (0 Bft)
19.11.2013 12:52 5,7 C 4,4 C 93 % 1006,5 hPa 0,0 l/m 0 min 0 min 0,0 UV-I 21 W/m 4,2 km/h (1 Bft)
19.11.2013 12:54 5,6 C 4,4 C 93 % 1006,4 hPa 0,0 l/m 0 min 0 min 0,0 UV-I 23 W/m 0,0 km/h (0 Bft)
19.11.2013 12:56 5,6 C 4,4 C 94 % 1006,4 hPa 0,0 l/m 0 min 0 min 0,0 UV-I 25 W/m 0,0 km/h (0 Bft)
19.11.2013 12:58 5,6 C 4,4 C 94 % 1006,4 hPa 0,0 l/m 0 min 0 min 0,0 UV-I 25 W/m 0,0 km/h (0 Bft)
19.11.2013 13:00 5,6 C 4,4 C 94 % 1006,4 hPa 0,0 l/m 0 min 0 min 0,0 UV-I 28 W/m 0,0 km/h (0 Bft)
19.11.2013 13:02 5,6 C 4,4 C 94 % 1006,4 hPa 0,0 l/m 0 min 0 min 0,0 UV-I 28 W/m 0,0 km/h (0 Bft)
19.11.2013 13:06 5,6 C 4,4 C 94 % 1006,4 hPa 0,0 l/m 0 min 0 min 0,0 UV-I 28 W/m 0,0 km/h (0 Bft)
19.11.2013 13:08 5,6 C 4,4 C 94 % 1006,3 hPa 0,0 l/m 0 min 0 min 0,0 UV-I 28 W/m 0,0 km/h (0 Bft)
19.11.2013 13:10 5,6 C 5,0 C 94 % 1006,3 hPa 0,0 l/m 0 min 0 min 0,0 UV-I 35 W/m 0,0 km/h (0 Bft)
19.11.2013 13:12 5,6 C 5,0 C 94 % 1006,3 hPa 0,0 l/m 0 min 0 min 0,0 UV-I 35 W/m 0,0 km/h (0 Bft)
19.11.2013 13:14 5,7 C 5,0 C 94 % 1006,4 hPa 0,0 l/m 0 min 0 min 0,0 UV-I 35 W/m 0,0 km/h (0 Bft)
19.11.2013 13:16 5,7 C 5,0 C 94 % 1006,4 hPa 0,0 l/m 0 min 0 min 0,0 UV-I 42 W/m 0,0 km/h (0 Bft)
19.11.2013 13:18 5,7 C 5,0 C 94 % 1006,3 hPa 0,0 l/m 0 min 0 min 0,0 UV-I 40 W/m 0,0 km/h (0 Bft)
19.11.2013 13:20 5,7 C 5,0 C 94 % 1006,3 hPa 0,0 l/m 0 min 0 min 0,0 UV-I 40 W/m 0,0 km/h (0 Bft)
19.11.2013 13:22 5,7 C 5,0 C 94 % 1006,4 hPa 0,0 l/m 0 min 0 min 0,0 UV-I 37 W/m 0,0 km/h (0 Bft)
19.11.2013 13:24 5,7 C 5,0 C 94 % 1006,4 hPa 0,0 l/m 0 min 0 min 0,0 UV-I 37 W/m 0,0 km/h (0 Bft)
19.11.2013 13:26 5,7 C 5,0 C 94 % 1006,3 hPa 0,0 l/m 0 min 0 min 0,0 UV-I 33 W/m 0,0 km/h (0 Bft)
19.11.2013 13:28 5,7 C 5,0 C 94 % 1006,3 hPa 0,0 l/m 0 min 0 min 0,0 UV-I 37 W/m 0,0 km/h (0 Bft)
19.11.2013 13:30 5,7 C 5,0 C 95 % 1006,3 hPa 0,0 l/m 0 min 0 min 0,0 UV-I 35 W/m 0,0 km/h (0 Bft)
19.11.2013 13:32 5,7 C 5,0 C 95 % 1006,3 hPa 0,0 l/m 0 min 0 min 0,0 UV-I 25 W/m 0,0 km/h (0 Bft)
19.11.2013 13:34 5,7 C 5,0 C 95 % 1006,3 hPa 0,0 l/m 0 min 0 min 0,0 UV-I 21 W/m 0,0 km/h (0 Bft)
19.11.2013 13:36 5,7 C 5,0 C 95 % 1006,3 hPa 0,0 l/m 0 min 0 min 0,0 UV-I 21 W/m 0,0 km/h (0 Bft)
19.11.2013 13:38 5,7 C 5,0 C 95 % 1006,3 hPa 0,0 l/m 0 min 0 min 0,0 UV-I 21 W/m 8,2 km/h (2 Bft)
19.11.2013 13:40 5,7 C 5,0 C 95 % 1006,3 hPa 0,0 l/m 0 min 0 min 0,0 UV-I 19 W/m 0,0 km/h (0 Bft)
19.11.2013 13:42 5,7 C 5,0 C 95 % 1006,3 hPa 0,0 l/m 0 min 0 min 0,0 UV-I 18 W/m 8,2 km/h (2 Bft)
19.11.2013 13:44 5,7 C 5,0 C 95 % 1006,3 hPa 0,0 l/m 0 min 0 min 0,0 UV-I 18 W/m 0,0 km/h (0 Bft)
19.11.2013 13:46 5,7 C 5,0 C 95 % 1006,3 hPa 0,0 l/m 0 min 0 min 0,0 UV-I 19 W/m 0,0 km/h (0 Bft)
19.11.2013 13:48 5,7 C 5,0 C 95 % 1006,3 hPa 0,0 l/m 0 min 0 min 0,0 UV-I 19 W/m 16,5 km/h (3 Bft)
19.11.2013 13:50 5,7 C 5,0 C 95 % 1006,3 hPa 0,0 l/m 0 min 0 min 0,0 UV-I 23 W/m 0,0 km/h (0 Bft)
19.11.2013 13:52 5,7 C 5,0 C 95 % 1006,3 hPa 0,0 l/m 0 min 0 min 0,0 UV-I 23 W/m 12,3 km/h (3 Bft)
19.11.2013 13:54 5,7 C 5,0 C 95 % 1006,3 hPa 0,0 l/m 0 min 0 min 0,0 UV-I 21 W/m 0,0 km/h (0 Bft)
19.11.2013 13:56 5,7 C 5,0 C 95 % 1006,3 hPa 0,0 l/m 0 min 0 min 0,0 UV-I 25 W/m 0,0 km/h (0 Bft)
19.11.2013 13:58 5,7 C 5,0 C 95 % 1006,3 hPa 0,0 l/m 0 min 0 min 0,0 UV-I 28 W/m 0,0 km/h (0 Bft)
19.11.2013 14:00 5,7 C 5,0 C 95 % 1006,3 hPa 0,0 l/m 0 min 0 min 0,0 UV-I 30 W/m 0,0 km/h (0 Bft)
19.11.2013 14:02 5,7 C 5,0 C 95 % 1006,3 hPa 0,0 l/m 0 min 0 min 0,0 UV-I 30 W/m 4,2 km/h (1 Bft)
19.11.2013 14:04 5,7 C 5,0 C 95 % 1006,3 hPa 0,0 l/m 0 min 0 min 0,0 UV-I 28 W/m 0,0 km/h (0 Bft)
19.11.2013 14:06 5,7 C 5,0 C 95 % 1006,3 hPa 0,0 l/m 0 min 0 min 0,0 UV-I 28 W/m 0,0 km/h (0 Bft)
19.11.2013 14:08 5,7 C 5,0 C 95 % 1006,3 hPa 0,0 l/m 0 min 0 min 0,0 UV-I 25 W/m 0,0 km/h (0 Bft)
19.11.2013 14:10 5,7 C 5,0 C 95 % 1006,3 hPa 0,0 l/m 0 min 0 min 0,0 UV-I 23 W/m 0,0 km/h (0 Bft)
19.11.2013 14:12 5,7 C 5,0 C 95 % 1006,3 hPa 0,0 l/m 0 min 0 min 0,0 UV-I 21 W/m 0,0 km/h (0 Bft)
19.11.2013 14:14 5,7 C 5,0 C 95 % 1006,3 hPa 0,0 l/m 0 min 0 min 0,0 UV-I 23 W/m 0,0 km/h (0 Bft)
19.11.2013 14:16 5,7 C 5,0 C 95 % 1006,4 hPa 0,0 l/m 0 min 0 min 0,0 UV-I 25 W/m 0,0 km/h (0 Bft)
19.11.2013 14:18 5,7 C 5,0 C 95 % 1006,3 hPa 0,0 l/m 0 min 0 min 0,0 UV-I 26 W/m 0,0 km/h (0 Bft)
19.11.2013 14:20 5,7 C 5,0 C 95 % 1006,4 hPa 0,0 l/m 0 min 0 min 0,0 UV-I 26 W/m 12,3 km/h (3 Bft)
19.11.2013 14:22 5,7 C 5,0 C 95 % 1006,4 hPa 0,0 l/m 0 min 0 min 0,0 UV-I 28 W/m 8,2 km/h (2 Bft)
19.11.2013 14:24 5,7 C 5,0 C 95 % 1006,4 hPa 0,0 l/m 0 min 0 min 0,0 UV-I 30 W/m 0,0 km/h (0 Bft)
19.11.2013 14:26 5,7 C 5,0 C 95 % 1006,4 hPa 0,0 l/m 0 min 0 min 0,0 UV-I 25 W/m 0,0 km/h (0 Bft)
19.11.2013 14:28 5,7 C 5,0 C 95 % 1006,4 hPa 0,0 l/m 0 min 0 min 0,0 UV-I 26 W/m 4,2 km/h (1 Bft)
19.11.2013 14:30 5,7 C 5,0 C 95 % 1006,5 hPa 0,0 l/m 0 min 0 min 0,0 UV-I 26 W/m 0,0 km/h (0 Bft)
19.11.2013 14:32 5,7 C 5,0 C 95 % 1006,5 hPa 0,0 l/m 0 min 0 min 0,0 UV-I 23 W/m 0,0 km/h (0 Bft)
19.11.2013 14:34 5,7 C 5,0 C 95 % 1006,5 hPa 0,0 l/m 0 min 0 min 0,0 UV-I 23 W/m 0,0 km/h (0 Bft)
19.11.2013 14:36 5,7 C 5,0 C 95 % 1006,5 hPa 0,0 l/m 0 min 0 min 0,0 UV-I 25 W/m 0,0 km/h (0 Bft)
19.11.2013 14:38 5,7 C 5,0 C 95 % 1006,6 hPa 0,0 l/m 0 min 0 min 0,0 UV-I 26 W/m 0,0 km/h (0 Bft)
19.11.2013 14:40 5,7 C 5,0 C 95 % 1006,5 hPa 0,0 l/m 0 min 0 min 0,0 UV-I 26 W/m 0,0 km/h (0 Bft)
19.11.2013 14:42 5,7 C 5,0 C 95 % 1006,5 hPa 0,0 l/m 0 min 0 min 0,0 UV-I 30 W/m 0,0 km/h (0 Bft)
19.11.2013 14:44 5,7 C 5,0 C 95 % 1006,6 hPa 0,0 l/m 0 min 0 min 0,0 UV-I 35 W/m 0,0 km/h (0 Bft)
19.11.2013 14:46 5,7 C 5,0 C 95 % 1006,6 hPa 0,0 l/m 0 min 0 min 0,0 UV-I 33 W/m 0,0 km/h (0 Bft)
19.11.2013 14:48 5,8 C 4,4 C 95 % 1006,6 hPa 0,0 l/m 0 min 0 min 0,0 UV-I 28 W/m 0,0 km/h (0 Bft)
19.11.2013 14:50 5,8 C 4,4 C 95 % 1006,7 hPa 0,0 l/m 0 min 0 min 0,0 UV-I 32 W/m 0,0 km/h (0 Bft)
19.11.2013 14:52 5,8 C 4,4 C 95 % 1006,7 hPa 0,0 l/m 0 min 0 min 0,0 UV-I 23 W/m 0,0 km/h (0 Bft)
19.11.2013 14:54 5,8 C 4,4 C 95 % 1006,6 hPa 0,0 l/m 0 min 0 min 0,0 UV-I 23 W/m 0,0 km/h (0 Bft)
19.11.2013 14:56 5,8 C 4,4 C 95 % 1006,7 hPa 0,0 l/m 0 min 0 min 0,0 UV-I 21 W/m 0,0 km/h (0 Bft)
19.11.2013 14:58 5,8 C 4,4 C 96 % 1006,6 hPa 0,0 l/m 0 min 0 min 0,0 UV-I 19 W/m 0,0 km/h (0 Bft)
19.11.2013 15:00 5,8 C 4,4 C 96 % 1006,7 hPa 0,0 l/m 0 min 0 min 0,0 UV-I 19 W/m 0,0 km/h (0 Bft)
19.11.2013 15:02 5,8 C 4,4 C 96 % 1006,8 hPa 0,0 l/m 0 min 0 min 0,0 UV-I 19 W/m 0,0 km/h (0 Bft)
19.11.2013 15:04 5,8 C 4,4 C 96 % 1006,7 hPa 0,0 l/m 0 min 0 min 0,0 UV-I 18 W/m 0,0 km/h (0 Bft)
19.11.2013 15:06 5,8 C 4,4 C 96 % 1006,7 hPa 0,0 l/m 0 min 0 min 0,0 UV-I 16 W/m 0,0 km/h (0 Bft)
19.11.2013 15:08 5,8 C 5,0 C 96 % 1006,7 hPa 0,0 l/m 0 min 0 min 0,0 UV-I 18 W/m 0,0 km/h (0 Bft)
19.11.2013 15:10 5,8 C 5,0 C 96 % 1006,6 hPa 0,0 l/m 0 min 0 min 0,0 UV-I 16 W/m 0,0 km/h (0 Bft)
19.11.2013 15:12 5,8 C 4,4 C 96 % 1006,7 hPa 0,0 l/m 0 min 0 min 0,0 UV-I 16 W/m 4,2 km/h (1 Bft)
19.11.2013 15:14 5,8 C 4,4 C 96 % 1006,7 hPa 0,0 l/m 0 min 0 min 0,0 UV-I 14 W/m 0,0 km/h (0 Bft)
19.11.2013 15:16 5,8 C 5,0 C 96 % 1006,7 hPa 0,0 l/m 0 min 0 min 0,0 UV-I 14 W/m 0,0 km/h (0 Bft)
19.11.2013 15:18 5,8 C 4,4 C 96 % 1006,7 hPa 0,0 l/m 0 min 0 min 0,0 UV-I 14 W/m 8,2 km/h (2 Bft)
19.11.2013 15:20 5,8 C 4,4 C 96 % 1006,7 hPa 0,0 l/m 0 min 0 min 0,0 UV-I 18 W/m 8,2 km/h (2 Bft)
19.11.2013 15:22 5,8 C 5,0 C 96 % 1006,7 hPa 0,0 l/m 0 min 0 min 0,0 UV-I 16 W/m 4,2 km/h (1 Bft)
19.11.2013 15:24 5,8 C 4,4 C 96 % 1006,7 hPa 0,0 l/m 0 min 0 min 0,0 UV-I 12 W/m 12,3 km/h (3 Bft)
19.11.2013 15:26 5,8 C 5,0 C 96 % 1006,7 hPa 0,0 l/m 0 min 0 min 0,0 UV-I 12 W/m 8,2 km/h (2 Bft)
19.11.2013 15:28 5,8 C 5,0 C 96 % 1006,7 hPa 0,0 l/m 0 min 0 min 0,0 UV-I 12 W/m 0,0 km/h (0 Bft)
19.11.2013 15:30 5,8 C 4,4 C 96 % 1006,8 hPa 0,0 l/m 0 min 0 min 0,0 UV-I 11 W/m 12,3 km/h (3 Bft)
19.11.2013 15:32 5,9 C 5,0 C 96 % 1006,8 hPa 0,0 l/m 0 min 0 min 0,0 UV-I 11 W/m 4,2 km/h (1 Bft)
19.11.2013 15:34 5,9 C 5,0 C 96 % 1006,8 hPa 0,0 l/m 0 min 0 min 0,0 UV-I 11 W/m 8,2 km/h (2 Bft)
19.11.2013 15:36 5,9 C 5,0 C 96 % 1006,8 hPa 0,0 l/m 0 min 0 min 0,0 UV-I 11 W/m 8,2 km/h (2 Bft)
19.11.2013 15:38 5,9 C 5,0 C 96 % 1006,8 hPa 0,0 l/m 0 min 0 min 0,0 UV-I 11 W/m 12,3 km/h (3 Bft)
19.11.2013 15:40 5,9 C 5,0 C 96 % 1006,8 hPa 0,0 l/m 0 min 0 min 0,0 UV-I 9 W/m 4,2 km/h (1 Bft)
19.11.2013 15:42 5,9 C 5,0 C 96 % 1006,7 hPa 0,0 l/m 0 min 0 min 0,0 UV-I 7 W/m 12,3 km/h (3 Bft)
19.11.2013 15:44 5,9 C 5,0 C 96 % 1006,7 hPa 0,0 l/m 0 min 0 min 0,0 UV-I 9 W/m 12,3 km/h (3 Bft)
19.11.2013 15:46 5,9 C 5,0 C 96 % 1006,7 hPa 0,0 l/m 0 min 0 min 0,0 UV-I 11 W/m 0,0 km/h (0 Bft)
19.11.2013 15:48 5,9 C 5,0 C 96 % 1006,8 hPa 0,0 l/m 0 min 0 min 0,0 UV-I 9 W/m 0,0 km/h (0 Bft)
19.11.2013 15:50 5,9 C 5,0 C 96 % 1006,8 hPa 0,0 l/m 0 min 0 min 0,0 UV-I 9 W/m 12,3 km/h (3 Bft)
19.11.2013 15:52 5,9 C 5,0 C 96 % 1006,8 hPa 0,0 l/m 0 min 0 min 0,0 UV-I 9 W/m 0,0 km/h (0 Bft)
19.11.2013 15:54 5,9 C 5,0 C 96 % 1006,8 hPa 0,0 l/m 0 min 0 min 0,0 UV-I 7 W/m 4,2 km/h (1 Bft)
19.11.2013 15:56 5,9 C 5,0 C 96 % 1006,9 hPa 0,0 l/m 0 min 0 min 0,0 UV-I 7 W/m 8,2 km/h (2 Bft)
19.11.2013 15:58 5,9 C 5,0 C 96 % 1006,9 hPa 0,0 l/m 0 min 0 min 0,0 UV-I 7 W/m 12,3 km/h (3 Bft)
19.11.2013 16:00 5,9 C 5,0 C 96 % 1007,0 hPa 0,0 l/m 0 min 0 min 0,0 UV-I 9 W/m 0,0 km/h (0 Bft)
19.11.2013 16:02 5,9 C 5,0 C 96 % 1006,9 hPa 0,0 l/m 0 min 0 min 0,0 UV-I 9 W/m 0,0 km/h (0 Bft)
19.11.2013 16:04 5,9 C 5,0 C 96 % 1007,0 hPa 0,0 l/m 0 min 2 min 0,0 UV-I 7 W/m 8,2 km/h (2 Bft)
19.11.2013 16:06 5,9 C 5,0 C 96 % 1007,0 hPa 0,0 l/m 0 min 0 min 0,0 UV-I 7 W/m 4,2 km/h (1 Bft)
19.11.2013 16:08 5,9 C 5,0 C 96 % 1007,1 hPa 0,0 l/m 0 min 0 min 0,0 UV-I 7 W/m 0,0 km/h (0 Bft)
19.11.2013 16:10 5,9 C 5,0 C 96 % 1007,1 hPa 0,0 l/m 0 min 0 min 0,0 UV-I 5 W/m 12,3 km/h (3 Bft)
19.11.2013 16:12 5,9 C 5,0 C 97 % 1007,1 hPa 0,0 l/m 0 min 0 min 0,0 UV-I 5 W/m 0,0 km/h (0 Bft)
19.11.2013 16:14 5,9 C 5,0 C 97 % 1007,1 hPa 0,0 l/m 0 min 0 min 0,0 UV-I 5 W/m 0,0 km/h (0 Bft)
19.11.2013 16:16 5,9 C 5,0 C 97 % 1007,0 hPa 0,0 l/m 0 min 0 min 0,0 UV-I 5 W/m 4,2 km/h (1 Bft)
19.11.2013 16:18 5,9 C 5,0 C 97 % 1007,0 hPa 0,0 l/m 0 min 0 min 0,0 UV-I 0 W/m 0,0 km/h (0 Bft)
19.11.2013 16:20 5,9 C 5,0 C 97 % 1006,9 hPa 0,0 l/m 0 min 0 min 0,0 UV-I 5 W/m 0,0 km/h (0 Bft)
19.11.2013 16:22 5,9 C 5,0 C 97 % 1006,9 hPa 0,0 l/m 0 min 0 min 0,0 UV-I 5 W/m 0,0 km/h (0 Bft)
19.11.2013 16:24 5,9 C 5,0 C 97 % 1006,8 hPa 0,0 l/m 0 min 0 min 0,0 UV-I 5 W/m 4,2 km/h (1 Bft)
19.11.2013 16:26 5,9 C 5,0 C 97 % 1006,9 hPa 0,0 l/m 0 min 0 min 0,0 UV-I 0 W/m 0,0 km/h (0 Bft)
19.11.2013 16:28 5,9 C 5,0 C 97 % 1006,8 hPa 0,0 l/m 0 min 0 min 0,0 UV-I 0 W/m 0,0 km/h (0 Bft)
19.11.2013 16:30 5,9 C 5,0 C 97 % 1006,9 hPa 0,0 l/m 0 min 0 min 0,0 UV-I 0 W/m 0,0 km/h (0 Bft)
19.11.2013 16:32 5,9 C 5,0 C 97 % 1006,8 hPa 0,0 l/m 0 min 0 min 0,0 UV-I 0 W/m 0,0 km/h (0 Bft)
19.11.2013 16:34 5,9 C 5,0 C 97 % 1006,8 hPa 0,0 l/m 0 min 0 min 0,0 UV-I 0 W/m 0,0 km/h (0 Bft)
19.11.2013 16:36 5,9 C 5,0 C 97 % 1006,9 hPa 0,0 l/m 0 min 0 min 0,0 UV-I 0 W/m 0,0 km/h (0 Bft)
19.11.2013 16:38 5,9 C 5,0 C 97 % 1006,9 hPa 0,0 l/m 0 min 0 min 0,0 UV-I 0 W/m 0,0 km/h (0 Bft)
19.11.2013 16:40 5,9 C 5,0 C 97 % 1006,9 hPa 0,0 l/m 0 min 0 min 0,0 UV-I 0 W/m 4,2 km/h (1 Bft)
19.11.2013 16:42 5,9 C 5,0 C 97 % 1007,0 hPa 0,0 l/m 0 min 0 min 0,0 UV-I 0 W/m 12,3 km/h (3 Bft)
19.11.2013 16:44 5,9 C 5,0 C 97 % 1007,0 hPa 0,0 l/m 0 min 0 min 0,0 UV-I 0 W/m 12,3 km/h (3 Bft)
19.11.2013 16:46 5,9 C 5,0 C 97 % 1007,0 hPa 0,0 l/m 0 min 0 min 0,0 UV-I 0 W/m 16,5 km/h (3 Bft)
19.11.2013 16:48 5,9 C 5,0 C 97 % 1007,1 hPa 0,0 l/m 0 min 0 min 0,0 UV-I 0 W/m 8,2 km/h (2 Bft)
19.11.2013 16:50 5,9 C 5,0 C 97 % 1007,1 hPa 0,0 l/m 0 min 0 min 0,0 UV-I 0 W/m 12,3 km/h (3 Bft)
19.11.2013 16:52 5,9 C 5,0 C 97 % 1007,1 hPa 0,0 l/m 0 min 0 min 0,0 UV-I 0 W/m 0,0 km/h (0 Bft)
19.11.2013 16:54 5,9 C 5,0 C 97 % 1007,2 hPa 0,0 l/m 0 min 0 min 0,0 UV-I 0 W/m 12,3 km/h (3 Bft)
19.11.2013 16:56 5,9 C 5,0 C 97 % 1007,1 hPa 0,0 l/m 0 min 0 min 0,0 UV-I 0 W/m 8,2 km/h (2 Bft)
19.11.2013 16:58 5,9 C 5,0 C 97 % 1007,2 hPa 0,0 l/m 0 min 0 min 0,0 UV-I 0 W/m 0,0 km/h (0 Bft)
19.11.2013 17:00 5,9 C 5,0 C 97 % 1007,2 hPa 0,0 l/m 0 min 0 min 0,0 UV-I 0 W/m 0,0 km/h (0 Bft)
19.11.2013 17:02 5,9 C 5,0 C 97 % 1007,2 hPa 0,0 l/m 0 min 2 min 0,0 UV-I 0 W/m 8,2 km/h (2 Bft)
19.11.2013 17:04 5,9 C 5,0 C 97 % 1007,3 hPa 0,0 l/m 0 min 2 min 0,0 UV-I 0 W/m 0,0 km/h (0 Bft)
19.11.2013 17:06 5,9 C 5,0 C 97 % 1007,4 hPa 0,0 l/m 0 min 2 min 0,0 UV-I 0 W/m 0,0 km/h (0 Bft)
19.11.2013 17:08 5,9 C 5,0 C 97 % 1007,3 hPa 0,0 l/m 0 min 0 min 0,0 UV-I 0 W/m 0,0 km/h (0 Bft)
19.11.2013 17:10 5,9 C 5,0 C 97 % 1007,3 hPa 0,0 l/m 0 min 0 min 0,0 UV-I 0 W/m 0,0 km/h (0 Bft)
19.11.2013 17:12 5,9 C 5,0 C 97 % 1007,4 hPa 0,0 l/m 0 min 0 min 0,0 UV-I 0 W/m 0,0 km/h (0 Bft)
19.11.2013 17:14 5,9 C 5,0 C 97 % 1007,3 hPa 0,0 l/m 0 min 0 min 0,0 UV-I 0 W/m 0,0 km/h (0 Bft)
19.11.2013 17:16 5,9 C 5,0 C 97 % 1007,3 hPa 0,0 l/m 0 min 0 min 0,0 UV-I 0 W/m 0,0 km/h (0 Bft)
19.11.2013 17:18 5,9 C 5,0 C 97 % 1007,4 hPa 0,0 l/m 0 min 0 min 0,0 UV-I 0 W/m 0,0 km/h (0 Bft)
19.11.2013 17:20 5,9 C 5,0 C 97 % 1007,5 hPa 0,0 l/m 0 min 0 min 0,0 UV-I 0 W/m 0,0 km/h (0 Bft)
19.11.2013 17:22 6,0 C 5,0 C 97 % 1007,5 hPa 0,0 l/m 0 min 0 min 0,0 UV-I 0 W/m 0,0 km/h (0 Bft)
19.11.2013 17:24 6,0 C 5,0 C 97 % 1007,4 hPa 0,0 l/m 0 min 0 min 0,0 UV-I 0 W/m 0,0 km/h (0 Bft)
19.11.2013 17:26 6,0 C 5,0 C 97 % 1007,4 hPa 0,0 l/m 0 min 0 min 0,0 UV-I 0 W/m 0,0 km/h (0 Bft)
19.11.2013 17:28 6,0 C 5,0 C 97 % 1007,5 hPa 0,0 l/m 0 min 0 min 0,0 UV-I 0 W/m 0,0 km/h (0 Bft)
19.11.2013 17:30 6,0 C 5,0 C 97 % 1007,5 hPa 0,0 l/m 0 min 0 min 0,0 UV-I 0 W/m 4,2 km/h (1 Bft)
19.11.2013 17:32 6,0 C 5,0 C 97 % 1007,5 hPa 0,0 l/m 0 min 0 min 0,0 UV-I 0 W/m 0,0 km/h (0 Bft)
19.11.2013 17:34 6,0 C 5,0 C 97 % 1007,4 hPa 0,0 l/m 0 min 0 min 0,0 UV-I 0 W/m 8,2 km/h (2 Bft)
19.11.2013 17:36 6,0 C 5,0 C 97 % 1007,5 hPa 0,0 l/m 0 min 0 min 0,0 UV-I 0 W/m 0,0 km/h (0 Bft)
19.11.2013 17:38 6,0 C 5,0 C 97 % 1007,5 hPa 0,0 l/m 0 min 0 min 0,0 UV-I 0 W/m 0,0 km/h (0 Bft)
19.11.2013 17:40 6,0 C 5,0 C 97 % 1007,5 hPa 0,0 l/m 0 min 0 min 0,0 UV-I 0 W/m 0,0 km/h (0 Bft)
19.11.2013 17:42 6,0 C 5,0 C 97 % 1007,5 hPa 0,0 l/m 0 min 0 min 0,0 UV-I 0 W/m 0,0 km/h (0 Bft)
19.11.2013 17:44 6,0 C 5,0 C 97 % 1007,5 hPa 0,0 l/m 0 min 0 min 0,0 UV-I 0 W/m 0,0 km/h (0 Bft)
19.11.2013 17:46 6,0 C 5,0 C 97 % 1007,6 hPa 0,0 l/m 0 min 0 min 0,0 UV-I 0 W/m 0,0 km/h (0 Bft)
19.11.2013 17:48 6,0 C 5,0 C 97 % 1007,6 hPa 0,0 l/m 0 min 0 min 0,0 UV-I 0 W/m 0,0 km/h (0 Bft)
19.11.2013 17:50 6,0 C 5,0 C 97 % 1007,6 hPa 0,0 l/m 0 min 0 min 0,0 UV-I 0 W/m 0,0 km/h (0 Bft)
19.11.2013 17:52 6,0 C 5,0 C 97 % 1007,7 hPa 0,0 l/m 0 min 0 min 0,0 UV-I 0 W/m 0,0 km/h (0 Bft)
19.11.2013 17:54 6,0 C 5,0 C 97 % 1007,7 hPa 0,0 l/m 0 min 0 min 0,0 UV-I 0 W/m 0,0 km/h (0 Bft)
19.11.2013 17:56 6,0 C 5,0 C 97 % 1007,6 hPa 0,0 l/m 0 min 0 min 0,0 UV-I 0 W/m 0,0 km/h (0 Bft)
19.11.2013 17:58 6,0 C 5,0 C 97 % 1007,7 hPa 0,0 l/m 0 min 2 min 0,0 UV-I 0 W/m 0,0 km/h (0 Bft)
19.11.2013 18:00 6,1 C 5,0 C 97 % 1007,7 hPa 0,0 l/m 0 min 2 min 0,0 UV-I 0 W/m 0,0 km/h (0 Bft)
19.11.2013 18:02 6,0 C 5,0 C 97 % 1007,7 hPa 0,0 l/m 0 min 2 min 0,0 UV-I 0 W/m 0,0 km/h (0 Bft)
19.11.2013 18:04 6,0 C 5,0 C 97 % 1007,8 hPa 0,0 l/m 0 min 0 min 0,0 UV-I 0 W/m 0,0 km/h (0 Bft)
19.11.2013 18:06 6,1 C 5,0 C 97 % 1007,8 hPa 0,0 l/m 0 min 0 min 0,0 UV-I 0 W/m 0,0 km/h (0 Bft)
19.11.2013 18:08 6,0 C 5,0 C 97 % 1007,8 hPa 0,0 l/m 0 min 0 min 0,0 UV-I 0 W/m 0,0 km/h (0 Bft)
19.11.2013 18:10 6,0 C 5,0 C 97 % 1007,9 hPa 0,0 l/m 0 min 0 min 0,0 UV-I 0 W/m 0,0 km/h (0 Bft)
19.11.2013 18:12 6,1 C 5,0 C 97 % 1008,0 hPa 0,0 l/m 0 min 0 min 0,0 UV-I 0 W/m 0,0 km/h (0 Bft)
19.11.2013 18:14 6,0 C 5,0 C 97 % 1008,0 hPa 0,0 l/m 0 min 0 min 0,0 UV-I 0 W/m 0,0 km/h (0 Bft)
19.11.2013 18:16 6,0 C 5,0 C 97 % 1008,1 hPa 0,0 l/m 0 min 0 min 0,0 UV-I 0 W/m 0,0 km/h (0 Bft)
19.11.2013 18:18 6,0 C 5,0 C 97 % 1008,2 hPa 0,0 l/m 0 min 0 min 0,0 UV-I 0 W/m 0,0 km/h (0 Bft)
19.11.2013 18:20 6,0 C 5,0 C 97 % 1008,2 hPa 0,0 l/m 0 min 0 min 0,0 UV-I 0 W/m 0,0 km/h (0 Bft)
19.11.2013 18:22 6,0 C 5,0 C 97 % 1008,2 hPa 0,0 l/m 0 min 0 min 0,0 UV-I 0 W/m 0,0 km/h (0 Bft)
19.11.2013 18:24 6,0 C 5,0 C 97 % 1008,2 hPa 0,0 l/m 0 min 0 min 0,0 UV-I 0 W/m 0,0 km/h (0 Bft)
19.11.2013 18:26 6,0 C 5,0 C 97 % 1008,2 hPa 0,0 l/m 0 min 0 min 0,0 UV-I 0 W/m 0,0 km/h (0 Bft)
19.11.2013 18:28 6,0 C 5,0 C 97 % 1008,2 hPa 0,0 l/m 0 min 0 min 0,0 UV-I 0 W/m 0,0 km/h (0 Bft)
19.11.2013 18:30 6,0 C 5,0 C 97 % 1008,2 hPa 0,0 l/m 0 min 0 min 0,0 UV-I 0 W/m 0,0 km/h (0 Bft)
19.11.2013 18:32 6,0 C 5,0 C 97 % 1008,1 hPa 0,0 l/m 0 min 0 min 0,0 UV-I 0 W/m 0,0 km/h (0 Bft)
19.11.2013 18:34 6,0 C 5,0 C 97 % 1008,1 hPa 0,0 l/m 0 min 0 min 0,0 UV-I 0 W/m 0,0 km/h (0 Bft)
19.11.2013 18:36 6,0 C 5,0 C 97 % 1008,1 hPa 0,0 l/m 0 min 0 min 0,0 UV-I 0 W/m 0,0 km/h (0 Bft)
19.11.2013 18:38 6,0 C 5,0 C 97 % 1008,1 hPa 0,0 l/m 0 min 0 min 0,0 UV-I 0 W/m 0,0 km/h (0 Bft)
19.11.2013 18:40 6,0 C 5,0 C 97 % 1008,1 hPa 0,0 l/m 0 min 0 min 0,0 UV-I 0 W/m 0,0 km/h (0 Bft)
19.11.2013 18:42 6,0 C 5,0 C 97 % 1008,2 hPa 0,0 l/m 0 min 0 min 0,0 UV-I 0 W/m 0,0 km/h (0 Bft)
19.11.2013 18:44 6,0 C 5,0 C 97 % 1008,2 hPa 0,0 l/m 0 min 0 min 0,0 UV-I 0 W/m 0,0 km/h (0 Bft)
19.11.2013 18:46 6,0 C 5,0 C 98 % 1008,2 hPa 0,0 l/m 0 min 0 min 0,0 UV-I 0 W/m 0,0 km/h (0 Bft)
19.11.2013 18:48 6,0 C 5,0 C 98 % 1008,2 hPa 0,0 l/m 0 min 0 min 0,0 UV-I 0 W/m 0,0 km/h (0 Bft)
19.11.2013 18:50 6,0 C 5,0 C 98 % 1008,3 hPa 0,0 l/m 0 min 0 min 0,0 UV-I 0 W/m 0,0 km/h (0 Bft)
19.11.2013 18:52 6,0 C 5,0 C 98 % 1008,4 hPa 0,0 l/m 0 min 0 min 0,0 UV-I 0 W/m 0,0 km/h (0 Bft)
19.11.2013 18:54 6,0 C 5,0 C 97 % 1008,4 hPa 0,0 l/m 0 min 2 min 0,0 UV-I 0 W/m 0,0 km/h (0 Bft)
19.11.2013 18:56 6,0 C 5,0 C 98 % 1008,4 hPa 0,2 l/m 0 min 2 min 0,0 UV-I 0 W/m 0,0 km/h (0 Bft)
19.11.2013 18:58 6,0 C 5,0 C 98 % 1008,4 hPa 0,0 l/m 0 min 2 min 0,0 UV-I 0 W/m 4,2 km/h (1 Bft)
19.11.2013 19:00 6,0 C 5,0 C 98 % 1008,3 hPa 0,0 l/m 0 min 2 min 0,0 UV-I 0 W/m 4,2 km/h (1 Bft)
19.11.2013 19:02 6,0 C 5,0 C 98 % 1008,3 hPa 0,2 l/m 0 min 2 min 0,0 UV-I 0 W/m 0,0 km/h (0 Bft)
19.11.2013 19:04 6,1 C 5,0 C 98 % 1008,3 hPa 0,0 l/m 0 min 2 min 0,0 UV-I 0 W/m 20,6 km/h (4 Bft)
19.11.2013 19:06 6,1 C 5,0 C 98 % 1008,4 hPa 0,2 l/m 0 min 2 min 0,0 UV-I 0 W/m 12,3 km/h (3 Bft)
19.11.2013 19:08 6,1 C 5,0 C 98 % 1008,4 hPa 0,0 l/m 0 min 2 min 0,0 UV-I 0 W/m 12,3 km/h (3 Bft)
19.11.2013 19:10 6,1 C 5,0 C 98 % 1008,5 hPa 0,0 l/m 0 min 2 min 0,0 UV-I 0 W/m 28,8 km/h (4 Bft)
19.11.2013 19:12 6,2 C 5,0 C 98 % 1008,5 hPa 0,0 l/m 0 min 2 min 0,0 UV-I 0 W/m 16,5 km/h (3 Bft)
19.11.2013 19:14 6,2 C 5,0 C 98 % 1008,5 hPa 0,0 l/m 0 min 0 min 0,0 UV-I 0 W/m 16,5 km/h (3 Bft)
19.11.2013 19:16 6,2 C 5,0 C 98 % 1008,5 hPa 0,0 l/m 0 min 2 min 0,0 UV-I 0 W/m 20,6 km/h (4 Bft)
19.11.2013 19:18 6,3 C 5,0 C 98 % 1008,5 hPa 0,0 l/m 0 min 2 min 0,0 UV-I 0 W/m 16,5 km/h (3 Bft)
19.11.2013 19:20 6,3 C 5,0 C 98 % 1008,5 hPa 0,0 l/m 0 min 2 min 0,0 UV-I 0 W/m 24,6 km/h (4 Bft)
19.11.2013 19:22 6,3 C 5,0 C 98 % 1008,7 hPa 0,0 l/m 0 min 2 min 0,0 UV-I 0 W/m 20,6 km/h (4 Bft)
19.11.2013 19:24 6,3 C 5,0 C 98 % 1008,7 hPa 0,0 l/m 0 min 2 min 0,0 UV-I 0 W/m 33,0 km/h (5 Bft)
19.11.2013 19:26 6,3 C 5,0 C 98 % 1008,6 hPa 0,0 l/m 0 min 2 min 0,0 UV-I 0 W/m 37,1 km/h (5 Bft)
19.11.2013 19:28 6,3 C 5,0 C 98 % 1008,6 hPa 0,0 l/m 0 min 2 min 0,0 UV-I 0 W/m 16,5 km/h (3 Bft)
19.11.2013 19:30 6,3 C 5,0 C 98 % 1008,6 hPa 0,0 l/m 0 min 2 min 0,0 UV-I 0 W/m 12,3 km/h (3 Bft)
19.11.2013 19:32 6,3 C 5,0 C 98 % 1008,7 hPa 0,0 l/m 0 min 2 min 0,0 UV-I 0 W/m 28,8 km/h (4 Bft)
19.11.2013 19:34 6,3 C 5,0 C 98 % 1008,7 hPa 0,0 l/m 0 min 0 min 0,0 UV-I 0 W/m 33,0 km/h (5 Bft)
19.11.2013 19:36 6,2 C 5,0 C 98 % 1008,6 hPa 0,0 l/m 0 min 0 min 0,0 UV-I 0 W/m 16,5 km/h (3 Bft)
19.11.2013 19:38 6,2 C 5,0 C 98 % 1008,7 hPa 0,0 l/m 0 min 0 min 0,0 UV-I 0 W/m 24,6 km/h (4 Bft)
19.11.2013 19:40 6,2 C 5,0 C 98 % 1008,6 hPa 0,0 l/m 0 min 0 min 0,0 UV-I 0 W/m 28,8 km/h (4 Bft)
19.11.2013 19:42 6,2 C 5,0 C 98 % 1008,6 hPa 0,0 l/m 0 min 0 min 0,0 UV-I 0 W/m 37,1 km/h (5 Bft)
19.11.2013 19:44 6,2 C 5,0 C 98 % 1008,5 hPa 0,0 l/m 0 min 0 min 0,0 UV-I 0 W/m 24,6 km/h (4 Bft)
19.11.2013 19:46 6,2 C 5,0 C 98 % 1008,6 hPa 0,0 l/m 0 min 0 min 0,0 UV-I 0 W/m 24,6 km/h (4 Bft)
19.11.2013 19:48 6,2 C 5,0 C 98 % 1008,6 hPa 0,0 l/m 0 min 0 min 0,0 UV-I 0 W/m 33,0 km/h (5 Bft)
19.11.2013 19:50 6,1 C 5,0 C 98 % 1008,6 hPa 0,0 l/m 0 min 0 min 0,0 UV-I 0 W/m 28,8 km/h (4 Bft)
19.11.2013 19:52 6,1 C 5,0 C 98 % 1008,6 hPa 0,0 l/m 0 min 2 min 0,0 UV-I 0 W/m 24,6 km/h (4 Bft)
19.11.2013 19:54 6,1 C 5,0 C 98 % 1008,6 hPa 0,0 l/m 0 min 2 min 0,0 UV-I 0 W/m 20,6 km/h (4 Bft)
19.11.2013 19:56 6,1 C 4,4 C 98 % 1008,6 hPa 0,0 l/m 0 min 2 min 0,0 UV-I 0 W/m 24,6 km/h (4 Bft)
19.11.2013 19:58 6,1 C 4,4 C 98 % 1008,7 hPa 0,0 l/m 0 min 0 min 0,0 UV-I 0 W/m 28,8 km/h (4 Bft)
19.11.2013 20:00 6,1 C 4,4 C 98 % 1008,8 hPa 0,0 l/m 0 min 0 min 0,0 UV-I 0 W/m 28,8 km/h (4 Bft)
19.11.2013 20:02 6,1 C 4,4 C 98 % 1008,8 hPa 0,0 l/m 0 min 2 min 0,0 UV-I 0 W/m 28,8 km/h (4 Bft)
19.11.2013 20:04 6,0 C 4,4 C 98 % 1008,9 hPa 0,0 l/m 0 min 2 min 0,0 UV-I 0 W/m 28,8 km/h (4 Bft)
19.11.2013 20:06 6,0 C 4,4 C 98 % 1008,9 hPa 0,0 l/m 0 min 2 min 0,0 UV-I 0 W/m 33,0 km/h (5 Bft)
19.11.2013 20:08 6,0 C 4,4 C 98 % 1008,9 hPa 0,0 l/m 0 min 2 min 0,0 UV-I 0 W/m 28,8 km/h (4 Bft)
19.11.2013 20:10 6,0 C 4,4 C 98 % 1008,9 hPa 0,0 l/m 0 min 0 min 0,0 UV-I 0 W/m 24,6 km/h (4 Bft)
19.11.2013 20:12 6,0 C 4,4 C 98 % 1008,8 hPa 0,0 l/m 0 min 0 min 0,0 UV-I 0 W/m 24,6 km/h (4 Bft)
19.11.2013 20:14 6,0 C 4,4 C 97 % 1008,8 hPa 0,0 l/m 0 min 0 min 0,0 UV-I 0 W/m 24,6 km/h (4 Bft)
19.11.2013 20:16 5,9 C 4,4 C 97 % 1008,9 hPa 0,0 l/m 0 min 2 min 0,0 UV-I 0 W/m 24,6 km/h (4 Bft)
19.11.2013 20:18 5,9 C 4,4 C 97 % 1008,9 hPa 0,0 l/m 0 min 0 min 0,0 UV-I 0 W/m 20,6 km/h (4 Bft)
19.11.2013 20:20 5,9 C 4,4 C 97 % 1009,0 hPa 0,0 l/m 0 min 2 min 0,0 UV-I 0 W/m 16,5 km/h (3 Bft)
19.11.2013 20:22 5,9 C 4,4 C 97 % 1008,9 hPa 0,0 l/m 0 min 2 min 0,0 UV-I 0 W/m 37,1 km/h (5 Bft)
19.11.2013 20:24 5,9 C 4,4 C 97 % 1009,0 hPa 0,0 l/m 0 min 2 min 0,0 UV-I 0 W/m 28,8 km/h (4 Bft)
19.11.2013 20:26 5,9 C 4,4 C 97 % 1009,0 hPa 0,0 l/m 0 min 2 min 0,0 UV-I 0 W/m 24,6 km/h (4 Bft)
19.11.2013 20:28 5,9 C 4,4 C 97 % 1009,0 hPa 0,0 l/m 0 min 2 min 0,0 UV-I 0 W/m 24,6 km/h (4 Bft)
19.11.2013 20:30 5,9 C 4,4 C 97 % 1008,9 hPa 0,0 l/m 0 min 2 min 0,0 UV-I 0 W/m 20,6 km/h (4 Bft)
19.11.2013 20:32 5,9 C 4,4 C 97 % 1008,9 hPa 0,2 l/m 0 min 2 min 0,0 UV-I 0 W/m 28,8 km/h (4 Bft)
19.11.2013 20:34 5,9 C 4,4 C 97 % 1009,0 hPa 0,0 l/m 0 min 2 min 0,0 UV-I 0 W/m 24,6 km/h (4 Bft)
19.11.2013 20:36 5,9 C 4,4 C 97 % 1008,9 hPa 0,0 l/m 0 min 2 min 0,0 UV-I 0 W/m 28,8 km/h (4 Bft)
19.11.2013 20:38 5,9 C 4,4 C 97 % 1009,0 hPa 0,0 l/m 0 min 2 min 0,0 UV-I 0 W/m 20,6 km/h (4 Bft)
19.11.2013 20:40 5,9 C 4,4 C 97 % 1009,0 hPa 0,0 l/m 0 min 2 min 0,0 UV-I 0 W/m 20,6 km/h (4 Bft)
19.11.2013 20:42 5,9 C 4,4 C 97 % 1009,1 hPa 0,2 l/m 0 min 2 min 0,0 UV-I 0 W/m 16,5 km/h (3 Bft)
19.11.2013 20:44 5,9 C 4,4 C 97 % 1009,1 hPa 0,0 l/m 0 min 2 min 0,0 UV-I 0 W/m 0,0 km/h (0 Bft)
19.11.2013 20:46 5,9 C 4,4 C 97 % 1009,2 hPa 0,0 l/m 0 min 2 min 0,0 UV-I 0 W/m 4,2 km/h (1 Bft)
19.11.2013 20:48 5,9 C 4,4 C 97 % 1009,1 hPa 0,0 l/m 0 min 2 min 0,0 UV-I 0 W/m 12,3 km/h (3 Bft)
19.11.2013 20:50 5,9 C 4,4 C 97 % 1009,0 hPa 0,0 l/m 0 min 2 min 0,0 UV-I 0 W/m 12,3 km/h (3 Bft)
19.11.2013 20:52 5,9 C 4,4 C 97 % 1009,1 hPa 0,0 l/m 0 min 2 min 0,0 UV-I 0 W/m 0,0 km/h (0 Bft)
19.11.2013 20:54 5,9 C 4,4 C 97 % 1009,1 hPa 0,0 l/m 0 min 2 min 0,0 UV-I 0 W/m 12,3 km/h (3 Bft)
19.11.2013 20:56 5,9 C 4,4 C 97 % 1009,1 hPa 0,0 l/m 0 min 2 min 0,0 UV-I 0 W/m 8,2 km/h (2 Bft)
19.11.2013 20:58 5,9 C 4,4 C 97 % 1009,1 hPa 0,0 l/m 0 min 2 min 0,0 UV-I 0 W/m 8,2 km/h (2 Bft)
19.11.2013 21:00 5,9 C 4,4 C 97 % 1009,1 hPa 0,0 l/m 0 min 0 min 0,0 UV-I 0 W/m 12,3 km/h (3 Bft)
19.11.2013 21:02 5,9 C 4,4 C 97 % 1009,1 hPa 0,0 l/m 0 min 0 min 0,0 UV-I 0 W/m 12,3 km/h (3 Bft)
19.11.2013 21:04 5,9 C 4,4 C 97 % 1009,1 hPa 0,0 l/m 0 min 0 min 0,0 UV-I 0 W/m 0,0 km/h (0 Bft)
19.11.2013 21:06 5,9 C 4,4 C 97 % 1009,1 hPa 0,0 l/m 0 min 0 min 0,0 UV-I 0 W/m 20,6 km/h (4 Bft)
19.11.2013 21:08 5,9 C 4,4 C 97 % 1009,1 hPa 0,0 l/m 0 min 0 min 0,0 UV-I 0 W/m 12,3 km/h (3 Bft)
19.11.2013 21:10 5,9 C 4,4 C 97 % 1009,1 hPa 0,0 l/m 0 min 0 min 0,0 UV-I 0 W/m 16,5 km/h (3 Bft)
19.11.2013 21:12 5,9 C 4,4 C 97 % 1009,0 hPa 0,0 l/m 0 min 0 min 0,0 UV-I 0 W/m 12,3 km/h (3 Bft)
19.11.2013 21:14 5,9 C 4,4 C 97 % 1009,0 hPa 0,0 l/m 0 min 0 min 0,0 UV-I 0 W/m 20,6 km/h (4 Bft)
19.11.2013 21:16 5,9 C 4,4 C 97 % 1009,1 hPa 0,0 l/m 0 min 0 min 0,0 UV-I 0 W/m 16,5 km/h (3 Bft)
19.11.2013 21:18 5,9 C 4,4 C 97 % 1009,1 hPa 0,0 l/m 0 min 0 min 0,0 UV-I 0 W/m 12,3 km/h (3 Bft)
19.11.2013 21:20 5,9 C 4,4 C 97 % 1009,1 hPa 0,0 l/m 0 min 0 min 0,0 UV-I 0 W/m 16,5 km/h (3 Bft)
19.11.2013 21:22 5,9 C 4,4 C 97 % 1009,1 hPa 0,0 l/m 0 min 0 min 0,0 UV-I 0 W/m 16,5 km/h (3 Bft)
19.11.2013 21:24 5,9 C 4,4 C 97 % 1009,1 hPa 0,0 l/m 0 min 0 min 0,0 UV-I 0 W/m 24,6 km/h (4 Bft)
19.11.2013 21:26 5,9 C 4,4 C 97 % 1009,1 hPa 0,0 l/m 0 min 0 min 0,0 UV-I 0 W/m 20,6 km/h (4 Bft)
19.11.2013 21:28 5,9 C 4,4 C 97 % 1009,1 hPa 0,0 l/m 0 min 0 min 0,0 UV-I 0 W/m 12,3 km/h (3 Bft)
19.11.2013 21:30 5,9 C 4,4 C 97 % 1009,1 hPa 0,0 l/m 0 min 0 min 0,0 UV-I 0 W/m 20,6 km/h (4 Bft)
19.11.2013 21:32 5,9 C 4,4 C 97 % 1009,1 hPa 0,0 l/m 0 min 0 min 0,0 UV-I 0 W/m 12,3 km/h (3 Bft)
19.11.2013 21:34 5,9 C 4,4 C 97 % 1009,1 hPa 0,0 l/m 0 min 0 min 0,0 UV-I 0 W/m 33,0 km/h (5 Bft)
19.11.2013 21:36 5,9 C 4,4 C 97 % 1009,2 hPa 0,0 l/m 0 min 0 min 0,0 UV-I 0 W/m 12,3 km/h (3 Bft)
19.11.2013 21:38 5,9 C 4,4 C 97 % 1009,3 hPa 0,0 l/m 0 min 0 min 0,0 UV-I 0 W/m 16,5 km/h (3 Bft)
19.11.2013 21:40 5,8 C 4,4 C 97 % 1009,2 hPa 0,0 l/m 0 min 0 min 0,0 UV-I 0 W/m 20,6 km/h (4 Bft)
19.11.2013 21:42 5,8 C 4,4 C 97 % 1009,2 hPa 0,0 l/m 0 min 0 min 0,0 UV-I 0 W/m 12,3 km/h (3 Bft)
19.11.2013 21:44 5,8 C 4,4 C 97 % 1009,2 hPa 0,0 l/m 0 min 0 min 0,0 UV-I 0 W/m 20,6 km/h (4 Bft)
19.11.2013 21:46 5,8 C 4,4 C 97 % 1009,2 hPa 0,0 l/m 0 min 0 min 0,0 UV-I 0 W/m 20,6 km/h (4 Bft)
19.11.2013 21:48 5,8 C 4,4 C 97 % 1009,1 hPa 0,0 l/m 0 min 0 min 0,0 UV-I 0 W/m 16,5 km/h (3 Bft)
19.11.2013 21:50 5,8 C 4,4 C 97 % 1009,1 hPa 0,0 l/m 0 min 0 min 0,0 UV-I 0 W/m 16,5 km/h (3 Bft)
19.11.2013 21:52 5,8 C 4,4 C 97 % 1009,2 hPa 0,0 l/m 0 min 0 min 0,0 UV-I 0 W/m 16,5 km/h (3 Bft)
19.11.2013 21:54 5,8 C 4,4 C 97 % 1009,3 hPa 0,0 l/m 0 min 0 min 0,0 UV-I 0 W/m 20,6 km/h (4 Bft)
19.11.2013 21:56 5,8 C 4,4 C 97 % 1009,2 hPa 0,0 l/m 0 min 0 min 0,0 UV-I 0 W/m 16,5 km/h (3 Bft)
19.11.2013 21:58 5,8 C 4,4 C 97 % 1009,2 hPa 0,0 l/m 0 min 0 min 0,0 UV-I 0 W/m 8,2 km/h (2 Bft)
19.11.2013 22:00 5,8 C 4,4 C 97 % 1009,2 hPa 0,0 l/m 0 min 0 min 0,0 UV-I 0 W/m 24,6 km/h (4 Bft)
19.11.2013 22:02 5,8 C 4,4 C 98 % 1009,2 hPa 0,0 l/m 0 min 0 min 0,0 UV-I 0 W/m 24,6 km/h (4 Bft)
19.11.2013 22:04 5,8 C 4,4 C 98 % 1009,2 hPa 0,0 l/m 0 min 0 min 0,0 UV-I 0 W/m 20,6 km/h (4 Bft)
19.11.2013 22:06 5,8 C 4,4 C 97 % 1009,1 hPa 0,0 l/m 0 min 2 min 0,0 UV-I 0 W/m 20,6 km/h (4 Bft)
19.11.2013 22:08 5,8 C 4,4 C 97 % 1009,1 hPa 0,0 l/m 0 min 2 min 0,0 UV-I 0 W/m 16,5 km/h (3 Bft)
19.11.2013 22:10 5,8 C 4,4 C 98 % 1009,1 hPa 0,0 l/m 0 min 2 min 0,0 UV-I 0 W/m 20,6 km/h (4 Bft)
19.11.2013 22:12 5,8 C 4,4 C 97 % 1009,2 hPa 0,0 l/m 0 min 2 min 0,0 UV-I 0 W/m 16,5 km/h (3 Bft)
19.11.2013 22:14 5,8 C 4,4 C 97 % 1009,1 hPa 0,0 l/m 0 min 2 min 0,0 UV-I 0 W/m 24,6 km/h (4 Bft)
19.11.2013 22:16 5,8 C 4,4 C 97 % 1009,2 hPa 0,0 l/m 0 min 2 min 0,0 UV-I 0 W/m 20,6 km/h (4 Bft)
19.11.2013 22:18 5,8 C 4,4 C 97 % 1009,2 hPa 0,0 l/m 0 min 0 min 0,0 UV-I 0 W/m 20,6 km/h (4 Bft)
19.11.2013 22:20 5,8 C 4,4 C 97 % 1009,2 hPa 0,0 l/m 0 min 0 min 0,0 UV-I 0 W/m 28,8 km/h (4 Bft)
19.11.2013 22:22 5,8 C 4,4 C 97 % 1009,2 hPa 0,0 l/m 0 min 0 min 0,0 UV-I 0 W/m 20,6 km/h (4 Bft)
19.11.2013 22:24 5,8 C 4,4 C 97 % 1009,3 hPa 0,0 l/m 0 min 0 min 0,0 UV-I 0 W/m 20,6 km/h (4 Bft)
19.11.2013 22:26 5,8 C 4,4 C 97 % 1009,2 hPa 0,0 l/m 0 min 0 min 0,0 UV-I 0 W/m 12,3 km/h (3 Bft)
19.11.2013 22:28 5,8 C 4,4 C 97 % 1009,4 hPa 0,0 l/m 0 min 0 min 0,0 UV-I 0 W/m 28,8 km/h (4 Bft)
19.11.2013 22:30 5,7 C 4,4 C 97 % 1009,3 hPa 0,0 l/m 0 min 0 min 0,0 UV-I 0 W/m 24,6 km/h (4 Bft)
19.11.2013 22:32 5,7 C 4,4 C 97 % 1009,2 hPa 0,0 l/m 0 min 0 min 0,0 UV-I 0 W/m 16,5 km/h (3 Bft)
19.11.2013 22:34 5,7 C 4,4 C 97 % 1009,2 hPa 0,0 l/m 0 min 0 min 0,0 UV-I 0 W/m 16,5 km/h (3 Bft)
19.11.2013 22:36 5,7 C 4,4 C 97 % 1009,2 hPa 0,0 l/m 0 min 0 min 0,0 UV-I 0 W/m 16,5 km/h (3 Bft)
19.11.2013 22:38 5,7 C 4,4 C 97 % 1009,2 hPa 0,0 l/m 0 min 0 min 0,0 UV-I 0 W/m 8,2 km/h (2 Bft)
19.11.2013 22:40 5,7 C 4,4 C 97 % 1009,2 hPa 0,0 l/m 0 min 0 min 0,0 UV-I 0 W/m 16,5 km/h (3 Bft)
19.11.2013 22:42 5,7 C 4,4 C 97 % 1009,1 hPa 0,0 l/m 0 min 0 min 0,0 UV-I 0 W/m 16,5 km/h (3 Bft)
19.11.2013 22:44 5,7 C 4,4 C 97 % 1009,1 hPa 0,0 l/m 0 min 0 min 0,0 UV-I 0 W/m 12,3 km/h (3 Bft)
19.11.2013 22:46 5,7 C 4,4 C 97 % 1009,3 hPa 0,0 l/m 0 min 0 min 0,0 UV-I 0 W/m 12,3 km/h (3 Bft)
19.11.2013 22:48 5,7 C 4,4 C 97 % 1009,2 hPa 0,0 l/m 0 min 0 min 0,0 UV-I 0 W/m 12,3 km/h (3 Bft)
19.11.2013 22:50 5,7 C 4,4 C 97 % 1009,2 hPa 0,0 l/m 0 min 0 min 0,0 UV-I 0 W/m 8,2 km/h (2 Bft)
19.11.2013 22:52 5,7 C 4,4 C 97 % 1009,2 hPa 0,0 l/m 0 min 0 min 0,0 UV-I 0 W/m 16,5 km/h (3 Bft)
19.11.2013 22:54 5,7 C 4,4 C 97 % 1009,2 hPa 0,0 l/m 0 min 0 min 0,0 UV-I 0 W/m 4,2 km/h (1 Bft)
19.11.2013 22:56 5,6 C 4,4 C 97 % 1009,2 hPa 0,0 l/m 0 min 0 min 0,0 UV-I 0 W/m 20,6 km/h (4 Bft)
19.11.2013 22:58 5,6 C 4,4 C 97 % 1009,1 hPa 0,0 l/m 0 min 0 min 0,0 UV-I 0 W/m 12,3 km/h (3 Bft)
19.11.2013 23:00 5,6 C 4,4 C 97 % 1009,1 hPa 0,0 l/m 0 min 0 min 0,0 UV-I 0 W/m 24,6 km/h (4 Bft)
19.11.2013 23:02 5,6 C 4,4 C 97 % 1009,1 hPa 0,0 l/m 0 min 0 min 0,0 UV-I 0 W/m 12,3 km/h (3 Bft)
19.11.2013 23:04 5,6 C 3,9 C 97 % 1009,2 hPa 0,0 l/m 0 min 0 min 0,0 UV-I 0 W/m 28,8 km/h (4 Bft)
19.11.2013 23:06 5,6 C 3,9 C 97 % 1009,1 hPa 0,0 l/m 0 min 0 min 0,0 UV-I 0 W/m 0,0 km/h (0 Bft)
19.11.2013 23:08 5,6 C 3,9 C 97 % 1009,2 hPa 0,0 l/m 0 min 0 min 0,0 UV-I 0 W/m 20,6 km/h (4 Bft)
19.11.2013 23:10 5,6 C 3,9 C 97 % 1009,2 hPa 0,0 l/m 0 min 0 min 0,0 UV-I 0 W/m 16,5 km/h (3 Bft)
19.11.2013 23:12 5,6 C 3,9 C 97 % 1009,2 hPa 0,0 l/m 0 min 0 min 0,0 UV-I 0 W/m 12,3 km/h (3 Bft)
19.11.2013 23:14 5,6 C 3,9 C 97 % 1009,2 hPa 0,0 l/m 0 min 0 min 0,0 UV-I 0 W/m 8,2 km/h (2 Bft)
19.11.2013 23:16 5,5 C 3,9 C 97 % 1009,2 hPa 0,0 l/m 0 min 0 min 0,0 UV-I 0 W/m 16,5 km/h (3 Bft)
19.11.2013 23:18 5,5 C 3,9 C 97 % 1009,2 hPa 0,0 l/m 0 min 0 min 0,0 UV-I 0 W/m 8,2 km/h (2 Bft)
19.11.2013 23:20 5,5 C 3,9 C 97 % 1009,3 hPa 0,0 l/m 0 min 0 min 0,0 UV-I 0 W/m 8,2 km/h (2 Bft)
19.11.2013 23:22 5,5 C 3,9 C 97 % 1009,1 hPa 0,0 l/m 0 min 0 min 0,0 UV-I 0 W/m 4,2 km/h (1 Bft)
19.11.2013 23:24 5,5 C 3,9 C 97 % 1009,1 hPa 0,0 l/m 0 min 0 min 0,0 UV-I 0 W/m 16,5 km/h (3 Bft)
19.11.2013 23:26 5,4 C 3,9 C 97 % 1009,1 hPa 0,0 l/m 0 min 0 min 0,0 UV-I 0 W/m 12,3 km/h (3 Bft)
19.11.2013 23:28 5,4 C 3,9 C 97 % 1009,1 hPa 0,0 l/m 0 min 0 min 0,0 UV-I 0 W/m 16,5 km/h (3 Bft)
19.11.2013 23:30 5,4 C 3,9 C 97 % 1009,2 hPa 0,0 l/m 0 min 0 min 0,0 UV-I 0 W/m 24,6 km/h (4 Bft)
19.11.2013 23:32 5,4 C 3,9 C 97 % 1009,2 hPa 0,0 l/m 0 min 0 min 0,0 UV-I 0 W/m 20,6 km/h (4 Bft)
19.11.2013 23:34 5,4 C 3,9 C 97 % 1009,2 hPa 0,0 l/m 0 min 0 min 0,0 UV-I 0 W/m 12,3 km/h (3 Bft)
19.11.2013 23:36 5,4 C 3,9 C 97 % 1009,3 hPa 0,0 l/m 0 min 0 min 0,0 UV-I 0 W/m 20,6 km/h (4 Bft)
19.11.2013 23:38 5,4 C 3,9 C 97 % 1009,3 hPa 0,0 l/m 0 min 0 min 0,0 UV-I 0 W/m 12,3 km/h (3 Bft)
19.11.2013 23:40 5,4 C 3,9 C 97 % 1009,3 hPa 0,0 l/m 0 min 0 min 0,0 UV-I 0 W/m 0,0 km/h (0 Bft)
19.11.2013 23:42 5,4 C 3,9 C 97 % 1009,2 hPa 0,0 l/m 0 min 0 min 0,0 UV-I 0 W/m 0,0 km/h (0 Bft)
19.11.2013 23:44 5,3 C 3,9 C 97 % 1009,2 hPa 0,0 l/m 0 min 0 min 0,0 UV-I 0 W/m 20,6 km/h (4 Bft)
19.11.2013 23:46 5,3 C 3,9 C 97 % 1009,2 hPa 0,0 l/m 0 min 0 min 0,0 UV-I 0 W/m 24,6 km/h (4 Bft)
19.11.2013 23:48 5,3 C 3,9 C 97 % 1009,2 hPa 0,0 l/m 0 min 0 min 0,0 UV-I 0 W/m 20,6 km/h (4 Bft)
19.11.2013 23:50 5,3 C 3,9 C 97 % 1009,2 hPa 0,0 l/m 0 min 0 min 0,0 UV-I 0 W/m 12,3 km/h (3 Bft)
19.11.2013 23:52 5,3 C 3,9 C 97 % 1009,3 hPa 0,0 l/m 0 min 0 min 0,0 UV-I 0 W/m 16,5 km/h (3 Bft)
19.11.2013 23:54 5,3 C 3,9 C 97 % 1009,3 hPa 0,0 l/m 0 min 0 min 0,0 UV-I 0 W/m 24,6 km/h (4 Bft)
19.11.2013 23:56 5,3 C 3,9 C 97 % 1009,3 hPa 0,0 l/m 0 min 0 min 0,0 UV-I 0 W/m 16,5 km/h (3 Bft)
19.11.2013 23:58 5,3 C 3,9 C 97 % 1009,3 hPa 0,0 l/m 0 min 0 min 0,0 UV-I 0 W/m 12,3 km/h (3 Bft)
_ Min-Zeit 02:14 06:24 01:02 06:36 - - - - - 00:02
Minimum _ 4,0 C 2,8 C 87 % 1005,4 hPa - - - - - 0,0 km/h (0 Bft)
_ Max-Zeit 19:18 10:22 18:46 22:28 18:56 00:00 16:04 00:00 10:22 19:26
Maximum _ 6,3 C 5,0 C 98 % 1009,4 hPa 0,2 l/m 0 min 2 min 0,0 UV-I 90 W/m 37,1 km/h
N (5 Bft)
Durchschnitt _ 5,1 C 4,1 C 93 % 1007,1 hPa #1,0 l/m #0 min. #2:00 h 0,0 UV-I 29 W/m 5,7 km/h (1 Bft)
© 2013 W. Hausmann